Observation data for Guadalupe Mtns Park on 02/11/2018      Previous  Date  Next       Current Mesonet Observations  Soil Data  Daily Summary Page  Observations in Plain Language
KGU1 110600Z 26013G19KT 15/M08 A2986 RMK A01 T01491081  RH  020%=      5-min Rain = 0
KGU1 110601Z 27013G26KT 15/M08 A2987 RMK A01 T01481081  RH  020%=      5-min Rain = 0
KGU1 110602Z 25005KT 15/M08 A2987 RMK A01 T01481081  RH  020%=      5-min Rain = 0
KGU1 110603Z 24010G19KT 15/M08 A2986 RMK A01 T01471080  RH  020%=      5-min Rain = 0
KGU1 110604Z 26011KT 15/M08 A2987 RMK A01 T01461080  RH  020%=      5-min Rain = 0
KGU1 110605Z 26012G18KT 15/M08 A2987 RMK A01 T01461080  RH  021%=      5-min Rain = 0
KGU1 110606Z 25014G26KT 15/M08 A2987 RMK A01 T01461078  RH  021%=      5-min Rain = 0
KGU1 110607Z 25010G15KT 15/M08 A2987 RMK A01 T01451078  RH  021%=      5-min Rain = 0
KGU1 110608Z 27013G22KT 15/M08 A2987 RMK A01 T01451079  RH  021%=      5-min Rain = 0
KGU1 110609Z 24016G23KT 15/M08 A2986 RMK A01 T01451078  RH  021%=      5-min Rain = 0
KGU1 110610Z 22016G27KT 15/M08 A2986 RMK A01 T01461078  RH  021%=      5-min Rain = 0
KGU1 110611Z 25016G22KT 15/M08 A2986 RMK A01 T01471078  RH  021%=      5-min Rain = 0
KGU1 110612Z 26017G22KT 15/M08 A2987 RMK A01 T01461077  RH  021%=      5-min Rain = 0
KGU1 110613Z 25010G16KT 15/M08 A2988 RMK A01 T01461077  RH  021%=      5-min Rain = 0
KGU1 110614Z 25008KT 15/M08 A2987 RMK A01 T01461078  RH  021%=      5-min Rain = 0
KGU1 110615Z 26010G17KT 15/M08 A2987 RMK A01 T01461077  RH  021%=      5-min Rain = 0
KGU1 110616Z 25017G22KT 15/M08 A2987 RMK A01 T01451077  RH  021%=      5-min Rain = 0
KGU1 110617Z 27012G17KT 15/M08 A2988 RMK A01 T01451077  RH  021%=      5-min Rain = 0
KGU1 110618Z 25010KT 15/M08 A2987 RMK A01 T01451077  RH  021%=      5-min Rain = 0
KGU1 110619Z 30009G15KT 15/M08 A2987 RMK A01 T01451077  RH  021%=      5-min Rain = 0
KGU1 110620Z 27014KT 15/M08 A2987 RMK A01 T01451077  RH  021%=      5-min Rain = 0
KGU1 110621Z 24009G16KT 14/M08 A2987 RMK A01 T01441076  RH  021%=      5-min Rain = 0
KGU1 110622Z 22017G28KT 14/M08 A2987 RMK A01 T01441075  RH  021%=      5-min Rain = 0
KGU1 110623Z 23015G21KT 14/M08 A2987 RMK A01 T01441076  RH  021%=      5-min Rain = 0
KGU1 110624Z 25016G21KT 15/M08 A2987 RMK A01 T01451076  RH  021%=      5-min Rain = 0
KGU1 110625Z 23012KT 15/M08 A2987 RMK A01 T01451077  RH  021%=      5-min Rain = 0
KGU1 110626Z 28008G15KT 14/M08 A2987 RMK A01 T01441076  RH  021%=      5-min Rain = 0
KGU1 110627Z 29015G20KT 14/M08 A2987 RMK A01 T01431076  RH  021%=      5-min Rain = 0
KGU1 110628Z 27015G20KT 14/M08 A2987 RMK A01 T01431076  RH  022%=      5-min Rain = 0
KGU1 110629Z 25015KT 14/M08 A2987 RMK A01 T01431076  RH  022%=      5-min Rain = 0
KGU1 110630Z 30016G21KT 14/M08 A2988 RMK A01 T01431076  RH  022%=      5-min Rain = 0
KGU1 110631Z 29013KT 14/M08 A2987 RMK A01 T01441076  RH  021%=      5-min Rain = 0
KGU1 110632Z 27013G18KT 14/M08 A2987 RMK A01 T01441076  RH  021%=      5-min Rain = 0
KGU1 110633Z 29023G39KT 14/M08 A2987 RMK A01 T01441076  RH  021%=      5-min Rain = 0
KGU1 110634Z 26014G20KT 15/M08 A2987 RMK A01 T01451077  RH  021%=      5-min Rain = 0
KGU1 110635Z 24010G19KT 15/M08 A2987 RMK A01 T01461077  RH  021%=      5-min Rain = 0
KGU1 110636Z 25011G18KT 15/M08 A2987 RMK A01 T01451077  RH  021%=      5-min Rain = 0
KGU1 110637Z 24019G31KT 15/M08 A2987 RMK A01 T01451075  RH  021%=      5-min Rain = 0
KGU1 110638Z 25016G21KT 14/M08 A2988 RMK A01 T01441075  RH  021%=      5-min Rain = 0
KGU1 110639Z 26010KT 14/M08 A2987 RMK A01 T01441075  RH  022%=      5-min Rain = 0
KGU1 110640Z 24008G14KT 14/M08 A2987 RMK A01 T01431075  RH  022%=      5-min Rain = 0
KGU1 110641Z 24011G16KT 14/M07 A2987 RMK A01 T01431074  RH  022%=      5-min Rain = 0
KGU1 110642Z 24014G22KT 14/M08 A2988 RMK A01 T01421075  RH  022%=      5-min Rain = 0
KGU1 110643Z 24018G30KT 14/M07 A2988 RMK A01 T01421074  RH  022%=      5-min Rain = 0
KGU1 110644Z 26012G17KT 14/M07 A2987 RMK A01 T01431074  RH  022%=      5-min Rain = 0
KGU1 110645Z 24012G19KT 14/M08 A2988 RMK A01 T01431075  RH  022%=      5-min Rain = 0
KGU1 110646Z 25024G36KT 14/M07 A2988 RMK A01 T01431074  RH  022%=      5-min Rain = 0
KGU1 110647Z 26012G18KT 14/M07 A2988 RMK A01 T01441074  RH  022%=      5-min Rain = 0
KGU1 110648Z 25012KT 14/M07 A2987 RMK A01 T01431074  RH  022%=      5-min Rain = 0
KGU1 110649Z 23015G21KT 14/M08 A2988 RMK A01 T01431075  RH  022%=      5-min Rain = 0
KGU1 110650Z 21015G25KT 14/M07 A2988 RMK A01 T01431074  RH  022%=      5-min Rain = 0
KGU1 110651Z 22014G22KT 14/M07 A2987 RMK A01 T01431074  RH  022%=      5-min Rain = 0
KGU1 110652Z 27012KT 14/M07 A2988 RMK A01 T01421074  RH  022%=      5-min Rain = 0
KGU1 110653Z 25011G20KT 14/M07 A2988 RMK A01 T01411074  RH  022%=      5-min Rain = 0
KGU1 110654Z 26011G22KT 14/M07 A2988 RMK A01 T01401074  RH  022%=      5-min Rain = 0
KGU1 110655Z 24011G19KT 14/M07 A2988 RMK A01 T01401074  RH  022%=      5-min Rain = 0
KGU1 110656Z 26013G20KT 14/M07 A2988 RMK A01 T01401074  RH  022%=      5-min Rain = 0
KGU1 110657Z 26013KT 14/M07 A2988 RMK A01 T01401074  RH  022%=      5-min Rain = 0
KGU1 110658Z 26007G16KT 14/M07 A2988 RMK A01 T01411073  RH  022%=      5-min Rain = 0
KGU1 110659Z 22016G31KT 14/M07 A2988 RMK A01 T01411073  RH  022%=      5-min Rain = 0
KGU1 110700Z 24018G37KT 14/M07 A2989 RMK A01 T01411073  RH  022%=      5-min Rain = 0
KGU1 110701Z 25010G24KT 14/M07 A2989 RMK A01 T01421074  RH  022%=      5-min Rain = 0
KGU1 110702Z 27013KT 14/M08 A2989 RMK A01 T01411075  RH  022%=      5-min Rain = 0
KGU1 110703Z 27012KT 14/M07 A2988 RMK A01 T01401074  RH  022%=      5-min Rain = 0
KGU1 110704Z 25011KT 14/M07 A2988 RMK A01 T01391074  RH  022%=      5-min Rain = 0
KGU1 110705Z 26012G20KT 14/M07 A2989 RMK A01 T01391073  RH  023%=      5-min Rain = 0
KGU1 110706Z 27006KT 14/M07 A2989 RMK A01 T01381074  RH  023%=      5-min Rain = 0
KGU1 110707Z 26007KT 14/M07 A2989 RMK A01 T01371074  RH  023%=      5-min Rain = 0
KGU1 110708Z 27010G15KT 14/M07 A2989 RMK A01 T01351074  RH  023%=      5-min Rain = 0
KGU1 110709Z 25011G18KT 14/M07 A299 RMK A01 T01351074  RH  023%=      5-min Rain = 0
KGU1 110710Z 29011KT 14/M07 A2989 RMK A01 T01351074  RH  023%=      5-min Rain = 0
KGU1 110711Z 24013KT 14/M07 A299 RMK A01 T01351074  RH  023%=      5-min Rain = 0
KGU1 110712Z 28016G36KT 14/M07 A299 RMK A01 T01361072  RH  023%=      5-min Rain = 0
KGU1 110713Z 25010G15KT 14/M07 A2989 RMK A01 T01371072  RH  023%=      5-min Rain = 0
KGU1 110714Z 24011G17KT 14/M07 A2989 RMK A01 T01381073  RH  023%=      5-min Rain = 0
KGU1 110715Z 23007KT 14/M07 A299 RMK A01 T01381073  RH  023%=      5-min Rain = 0
KGU1 110716Z 24012G18KT 14/M07 A299 RMK A01 T01371072  RH  023%=      5-min Rain = 0
KGU1 110717Z 25014KT 14/M07 A299 RMK A01 T01381072  RH  023%=      5-min Rain = 0
KGU1 110718Z 25011G18KT 14/M07 A299 RMK A01 T01371072  RH  023%=      5-min Rain = 0
KGU1 110719Z 26008KT 14/M07 A299 RMK A01 T01361072  RH  023%=      5-min Rain = 0
KGU1 110720Z 21014G20KT 14/M07 A299 RMK A01 T01361072  RH  023%=      5-min Rain = 0
KGU1 110721Z 24013G23KT 14/M07 A299 RMK A01 T01371072  RH  023%=      5-min Rain = 0
KGU1 110722Z 24009KT 14/M07 A299 RMK A01 T01371073  RH  023%=      5-min Rain = 0
KGU1 110723Z 22010G17KT 14/M07 A299 RMK A01 T01371073  RH  023%=      5-min Rain = 0
KGU1 110724Z 24013KT 14/M07 A299 RMK A01 T01361072  RH  023%=      5-min Rain = 0
KGU1 110725Z 28015G25KT 14/M07 A299 RMK A01 T01361072  RH  023%=      5-min Rain = 0
KGU1 110726Z 29021G32KT 14/M07 A299 RMK A01 T01351071  RH  023%=      5-min Rain = 0
KGU1 110727Z 28018KT 14/M07 A299 RMK A01 T01361072  RH  023%=      5-min Rain = 0
KGU1 110728Z 25011G17KT 14/M07 A299 RMK A01 T01361072  RH  023%=      5-min Rain = 0
KGU1 110729Z 24009G14KT 14/M07 A299 RMK A01 T01351072  RH  023%=      5-min Rain = 0
KGU1 110730Z 23009KT 14/M07 A299 RMK A01 T01351073  RH  023%=      5-min Rain = 0
KGU1 110731Z 26007KT 14/M07 A299 RMK A01 T01351072  RH  023%=      5-min Rain = 0
KGU1 110732Z 29012G17KT 14/M07 A299 RMK A01 T01351072  RH  023%=      5-min Rain = 0
KGU1 110733Z 23009KT 14/M07 A299 RMK A01 T01351072  RH  023%=      5-min Rain = 0
KGU1 110734Z 28015G21KT 13/M07 A299 RMK A01 T01341072  RH  023%=      5-min Rain = 0
KGU1 110735Z 28020G31KT 13/M07 A2991 RMK A01 T01341072  RH  024%=      5-min Rain = 0
KGU1 110736Z 27017KT 13/M07 A299 RMK A01 T01341071  RH  024%=      5-min Rain = 0
KGU1 110737Z 26013G18KT 14/M07 A299 RMK A01 T01351072  RH  023%=      5-min Rain = 0
KGU1 110738Z 25012G17KT 14/M07 A299 RMK A01 T01351072  RH  023%=      5-min Rain = 0
KGU1 110739Z 27007G12KT 14/M07 A299 RMK A01 T01351071  RH  023%=      5-min Rain = 0
KGU1 110740Z 24010G17KT 14/M07 A299 RMK A01 T01351071  RH  023%=      5-min Rain = 0
KGU1 110741Z 21011G16KT 13/M07 A299 RMK A01 T01341071  RH  024%=      5-min Rain = 0
KGU1 110742Z 21010KT 13/M07 A299 RMK A01 T01341071  RH  024%=      5-min Rain = 0
KGU1 110743Z 27009G17KT 13/M07 A299 RMK A01 T01331071  RH  024%=      5-min Rain = 0
KGU1 110744Z 27011KT 13/M07 A299 RMK A01 T01331071  RH  024%=      5-min Rain = 0
KGU1 110745Z 27012KT 13/M07 A299 RMK A01 T01321072  RH  024%=      5-min Rain = 0
KGU1 110746Z 29018G26KT 13/M07 A299 RMK A01 T01321071  RH  024%=      5-min Rain = 0
KGU1 110747Z 26015G21KT 13/M07 A299 RMK A01 T01321071  RH  024%=      5-min Rain = 0
KGU1 110748Z 24013G18KT 13/M07 A299 RMK A01 T01321071  RH  024%=      5-min Rain = 0
KGU1 110749Z 20016G27KT 13/M07 A299 RMK A01 T01321070  RH  024%=      5-min Rain = 0
KGU1 110750Z 19016G21KT 13/M07 A2989 RMK A01 T01331070  RH  024%=      5-min Rain = 0
KGU1 110751Z 19014G20KT 13/M07 A2989 RMK A01 T01341070  RH  024%=      5-min Rain = 0
KGU1 110752Z 24008KT 13/M07 A299 RMK A01 T01341071  RH  024%=      5-min Rain = 0
KGU1 110753Z 24009KT 13/M07 A299 RMK A01 T01341071  RH  024%=      5-min Rain = 0
KGU1 110754Z 22009G14KT 13/M07 A299 RMK A01 T01331070  RH  024%=      5-min Rain = 0
KGU1 110755Z 24010G15KT 13/M07 A299 RMK A01 T01331070  RH  024%=      5-min Rain = 0
KGU1 110756Z 23016KT 13/M07 A299 RMK A01 T01331070  RH  024%=      5-min Rain = 0
KGU1 110757Z 24016G23KT 13/M07 A2989 RMK A01 T01331071  RH  024%=      5-min Rain = 0
KGU1 110758Z 22014KT 13/M07 A299 RMK A01 T01331070  RH  024%=      5-min Rain = 0
KGU1 110759Z 22013KT 13/M07 A299 RMK A01 T01331070  RH  024%=      5-min Rain = 0
KGU1 110800Z 26009G14KT 13/M07 A299 RMK A01 T01331070  RH  024%=      5-min Rain = 0
KGU1 110801Z 25011G18KT 13/M07 A299 RMK A01 T01331071  RH  024%=      5-min Rain = 0
KGU1 110802Z 26010G17KT 13/M07 A299 RMK A01 T01321071  RH  024%=      5-min Rain = 0
KGU1 110803Z 23010KT 13/M07 A299 RMK A01 T01311070  RH  024%=      5-min Rain = 0
KGU1 110804Z 21010KT 13/M07 A299 RMK A01 T01321070  RH  024%=      5-min Rain = 0
KGU1 110805Z 22011G16KT 13/M07 A299 RMK A01 T01311071  RH  024%=      5-min Rain = 0
KGU1 110806Z 25010G20KT 13/M07 A299 RMK A01 T01311070  RH  024%=      5-min Rain = 0
KGU1 110807Z 27016G22KT 13/M07 A2991 RMK A01 T01311070  RH  024%=      5-min Rain = 0
KGU1 110808Z 27017G24KT 13/M07 A2991 RMK A01 T01311070  RH  024%=      5-min Rain = 0
KGU1 110809Z 27014KT 13/M07 A299 RMK A01 T01321070  RH  024%=      5-min Rain = 0
KGU1 110810Z 29014G21KT 13/M07 A2991 RMK A01 T01321071  RH  024%=      5-min Rain = 0
KGU1 110811Z 23009KT 13/M07 A299 RMK A01 T01321070  RH  024%=      5-min Rain = 0
KGU1 110812Z 25009KT 13/M07 A299 RMK A01 T01321070  RH  024%=      5-min Rain = 0
KGU1 110813Z 26010G17KT 13/M07 A299 RMK A01 T01321070  RH  024%=      5-min Rain = 0
KGU1 110814Z 24019G27KT 13/M07 A2991 RMK A01 T01311070  RH  024%=      5-min Rain = 0
KGU1 110815Z 24014KT 13/M07 A2991 RMK A01 T01321070  RH  024%=      5-min Rain = 0
KGU1 110816Z 25011G22KT 13/M07 A299 RMK A01 T01331070  RH  024%=      5-min Rain = 0
KGU1 110817Z 25010G15KT 13/M07 A2991 RMK A01 T01331070  RH  024%=      5-min Rain = 0
KGU1 110818Z 26012G17KT 13/M07 A2991 RMK A01 T01331070  RH  024%=      5-min Rain = 0
KGU1 110819Z 32015G21KT 13/M07 A2991 RMK A01 T01331071  RH  024%=      5-min Rain = 0
KGU1 110820Z 23008G16KT 13/M07 A299 RMK A01 T01331070  RH  024%=      5-min Rain = 0
KGU1 110821Z 24012G23KT 13/M07 A2991 RMK A01 T01331070  RH  024%=      5-min Rain = 0
KGU1 110822Z 29015G24KT 13/M07 A2992 RMK A01 T01321070  RH  024%=      5-min Rain = 0
KGU1 110823Z 26015G22KT 13/M07 A2991 RMK A01 T01331070  RH  024%=      5-min Rain = 0
KGU1 110824Z 27010G15KT 13/M07 A2991 RMK A01 T01331070  RH  024%=      5-min Rain = 0
KGU1 110825Z 27011G16KT 13/M07 A2991 RMK A01 T01321071  RH  024%=      5-min Rain = 0
KGU1 110826Z 25010KT 13/M07 A2991 RMK A01 T01321071  RH  024%=      5-min Rain = 0
KGU1 110827Z 26014KT 13/M07 A2991 RMK A01 T01311071  RH  024%=      5-min Rain = 0
KGU1 110828Z 24016G22KT 13/M07 A2991 RMK A01 T01311070  RH  024%=      5-min Rain = 0
KGU1 110829Z 20013KT 13/M07 A299 RMK A01 T01311070  RH  024%=      5-min Rain = 0
KGU1 110830Z 25010KT 13/M07 A2991 RMK A01 T01311070  RH  024%=      5-min Rain = 0
KGU1 110831Z 27012G18KT 13/M07 A2991 RMK A01 T01301070  RH  025%=      5-min Rain = 0
KGU1 110832Z 26014KT 13/M07 A2991 RMK A01 T01301070  RH  025%=      5-min Rain = 0
KGU1 110833Z 27014G19KT 13/M07 A2991 RMK A01 T01291070  RH  025%=      5-min Rain = 0
KGU1 110834Z 27019G29KT 13/M07 A2991 RMK A01 T01291070  RH  025%=      5-min Rain = 0
KGU1 110835Z 26012G19KT 13/M07 A2991 RMK A01 T01301070  RH  025%=      5-min Rain = 0
KGU1 110836Z 27006KT 13/M07 A2991 RMK A01 T01311070  RH  024%=      5-min Rain = 0
KGU1 110837Z 27012KT 13/M07 A2991 RMK A01 T01311070  RH  024%=      5-min Rain = 0
KGU1 110838Z 25012G18KT 13/M07 A2991 RMK A01 T01301070  RH  025%=      5-min Rain = 0
KGU1 110839Z 25014G24KT 13/M07 A2991 RMK A01 T01301069  RH  025%=      5-min Rain = 0
KGU1 110840Z 26016G21KT 13/M07 A2991 RMK A01 T01311070  RH  024%=      5-min Rain = 0
KGU1 110841Z 24013G19KT 13/M07 A2991 RMK A01 T01311070  RH  024%=      5-min Rain = 0
KGU1 110842Z 25010G15KT 13/M07 A2991 RMK A01 T01311070  RH  024%=      5-min Rain = 0
KGU1 110843Z 26006KT 13/M07 A2991 RMK A01 T01311070  RH  024%=      5-min Rain = 0
KGU1 110844Z 26009KT 13/M07 A2991 RMK A01 T01301070  RH  025%=      5-min Rain = 0
KGU1 110845Z 24011KT 13/M07 A2991 RMK A01 T01291070  RH  025%=      5-min Rain = 0
KGU1 110846Z 25009KT 13/M07 A2991 RMK A01 T01291070  RH  025%=      5-min Rain = 0
KGU1 110847Z 21009KT 13/M07 A2991 RMK A01 T01291069  RH  025%=      5-min Rain = 0
KGU1 110848Z 23008KT 13/M07 A2991 RMK A01 T01281069  RH  025%=      5-min Rain = 0
KGU1 110849Z 26006G11KT 13/M07 A2991 RMK A01 T01281069  RH  025%=      5-min Rain = 0
KGU1 110850Z 25004KT 13/M07 A2991 RMK A01 T01281069  RH  025%=      5-min Rain = 0
KGU1 110851Z 23006KT 13/M07 A2991 RMK A01 T01291070  RH  025%=      5-min Rain = 0
KGU1 110852Z 22007G12KT 13/M07 A2991 RMK A01 T01281069  RH  025%=      5-min Rain = 0
KGU1 110853Z 23007KT 13/M07 A2991 RMK A01 T01271069  RH  025%=      5-min Rain = 0
KGU1 110854Z 26009KT 13/M07 A2991 RMK A01 T01271069  RH  025%=      5-min Rain = 0
KGU1 110855Z 28012KT 13/M07 A2992 RMK A01 T01281069  RH  025%=      5-min Rain = 0
KGU1 110856Z 24008KT 13/M07 A2992 RMK A01 T01281069  RH  025%=      5-min Rain = 0
KGU1 110857Z 27008KT 13/M07 A2991 RMK A01 T01281069  RH  025%=      5-min Rain = 0
KGU1 110858Z 27014KT 13/M07 A2992 RMK A01 T01281069  RH  025%=      5-min Rain = 0
KGU1 110859Z 24009G17KT 13/M07 A2992 RMK A01 T01271069  RH  025%=      5-min Rain = 0
KGU1 110900Z 21012KT 13/M07 A2992 RMK A01 T01281069  RH  025%=      5-min Rain = 0
KGU1 110901Z 19009KT 13/M07 A2991 RMK A01 T01281069  RH  025%=      5-min Rain = 0
KGU1 110902Z 18009KT 13/M07 A2991 RMK A01 T01261068  RH  025%=      5-min Rain = 0
KGU1 110903Z 19012KT 13/M07 A2991 RMK A01 T01261068  RH  025%=      5-min Rain = 0
KGU1 110904Z 22006KT 13/M07 A2992 RMK A01 T01271069  RH  025%=      5-min Rain = 0
KGU1 110905Z 20008KT 13/M07 A2992 RMK A01 T01271069  RH  025%=      5-min Rain = 0
KGU1 110906Z 19007KT 13/M07 A2992 RMK A01 T01261068  RH  025%=      5-min Rain = 0
KGU1 110907Z 19008KT 13/M07 A2992 RMK A01 T01251068  RH  026%=      5-min Rain = 0
KGU1 110908Z 20006KT 13/M07 A2992 RMK A01 T01251068  RH  026%=      5-min Rain = 0
KGU1 110909Z 09009G16KT 12/M07 A2993 RMK A01 T01201065  RH  027%=      5-min Rain = 0
KGU1 110910Z 08012KT 09/M06 A2992 RMK A01 T00911058  RH  035%=      5-min Rain = 0
KGU1 110911Z 08010KT 06/M06 A2993 RMK A01 T00641056  RH  043%=      5-min Rain = 0
KGU1 110912Z 08010KT 05/M06 A2993 RMK A01 T00461055  RH  048%=      5-min Rain = 0
KGU1 110913Z 08010KT 03/M06 A2993 RMK A01 T00341056  RH  052%=      5-min Rain = 0
KGU1 110914Z 11008KT 03/M06 A2993 RMK A01 T00261057  RH  055%=      5-min Rain = 0
KGU1 110915Z 11008KT 02/M06 A2993 RMK A01 T00201056  RH  058%=      5-min Rain = 0
KGU1 110916Z 09008KT 02/M06 A2993 RMK A01 T00161056  RH  060%=      5-min Rain = 0
KGU1 110917Z 07006KT 01/M06 A2994 RMK A01 T00131056  RH  061%=      5-min Rain = 0
KGU1 110918Z 08006KT 01/M06 A2994 RMK A01 T00101055  RH  062%=      5-min Rain = 0
KGU1 110919Z 08006KT 01/M06 A2993 RMK A01 T00091055  RH  063%=      5-min Rain = 0
KGU1 110920Z 09007KT 01/M06 A2993 RMK A01 T00071055  RH  064%=      5-min Rain = 0
KGU1 110921Z 08003KT 01/M06 A2994 RMK A01 T00061055  RH  064%=      5-min Rain = 0
KGU1 110922Z 12002KT 01/M06 A2994 RMK A01 T00051056  RH  064%=      5-min Rain = 0
KGU1 110923Z 12007KT 00/M06 A2994 RMK A01 T00041056  RH  065%=      5-min Rain = 0
KGU1 110924Z 11009KT 00/M06 A2993 RMK A01 T00031055  RH  066%=      5-min Rain = 0
KGU1 110925Z 11003KT 00/M06 A2995 RMK A01 T00021055  RH  066%=      5-min Rain = 0
KGU1 110926Z 06004KT 00/M06 A2995 RMK A01 T00021056  RH  066%=      5-min Rain = 0
KGU1 110927Z 10007KT 00/M06 A2994 RMK A01 T00011055  RH  067%=      5-min Rain = 0
KGU1 110928Z 13009KT 00/06 A2994 RMK A01 T00000-56  RH  066%=      5-min Rain = 0
KGU1 110929Z 12007KT 00/06 A2995 RMK A01 T00-00-55  RH  067%=      5-min Rain = 0
KGU1 110930Z 10007KT M00/M05 A2995 RMK A01 T10021054  RH  068%=      5-min Rain = 0
KGU1 110931Z 11006KT M00/M06 A2995 RMK A01 T10031055  RH  069%=      5-min Rain = 0
KGU1 110932Z 11006KT M00/M05 A2995 RMK A01 T10041054  RH  070%=      5-min Rain = 0
KGU1 110933Z 12005KT M01/M05 A2996 RMK A01 T10051054  RH  071%=      5-min Rain = 0
KGU1 110934Z 11005KT M01/M05 A2995 RMK A01 T10071054  RH  071%=      5-min Rain = 0
KGU1 110935Z 11007KT M01/M06 A2995 RMK A01 T10081055  RH  071%=      5-min Rain = 0
KGU1 110936Z 13005KT M01/M06 A2995 RMK A01 T10091056  RH  071%=      5-min Rain = 0
KGU1 110937Z 14005KT M01/M06 A2996 RMK A01 T10101057  RH  071%=      5-min Rain = 0
KGU1 110938Z 11008KT M01/M06 A2995 RMK A01 T10111058  RH  072%=      5-min Rain = 0
KGU1 110939Z 11008KT M01/M06 A2994 RMK A01 T10121058  RH  072%=      5-min Rain = 0
KGU1 110940Z 13005KT M01/M06 A2995 RMK A01 T10141058  RH  072%=      5-min Rain = 0
KGU1 110941Z 12004KT M01/M06 A2995 RMK A01 T10141058  RH  073%=      5-min Rain = 0
KGU1 110942Z 13006KT M02/M06 A2995 RMK A01 T10151059  RH  072%=      5-min Rain = 0
KGU1 110943Z 12006KT M02/M06 A2995 RMK A01 T10151061  RH  072%=      5-min Rain = 0
KGU1 110944Z 12006KT M02/M06 A2995 RMK A01 T10161062  RH  072%=      5-min Rain = 0
KGU1 110945Z 13007KT M02/M06 A2995 RMK A01 T10171064  RH  071%=      5-min Rain = 0
KGU1 110946Z 13005KT M02/M07 A2996 RMK A01 T10181065  RH  071%=      5-min Rain = 0
KGU1 110947Z 11008KT M02/M07 A2995 RMK A01 T10191067  RH  070%=      5-min Rain = 0
KGU1 110948Z 11009KT M02/M07 A2994 RMK A01 T10201068  RH  070%=      5-min Rain = 0
KGU1 110949Z 13005KT M02/M07 A2996 RMK A01 T10211068  RH  071%=      5-min Rain = 0
KGU1 110950Z 11006KT M02/M07 A2995 RMK A01 T10221069  RH  071%=      5-min Rain = 0
KGU1 110951Z 10007KT M02/M07 A2995 RMK A01 T10231070  RH  071%=      5-min Rain = 0
KGU1 110952Z 11005KT M02/M07 A2996 RMK A01 T10231071  RH  071%=      5-min Rain = 0
KGU1 110953Z 11005KT M02/M07 A2996 RMK A01 T10241071  RH  071%=      5-min Rain = 0
KGU1 110954Z 11006KT M03/M07 A2996 RMK A01 T10251072  RH  071%=      5-min Rain = 0
KGU1 110955Z 11004KT M03/M07 A2996 RMK A01 T10251072  RH  071%=      5-min Rain = 0
KGU1 110956Z 11005KT M03/M07 A2996 RMK A01 T10261073  RH  071%=      5-min Rain = 0
KGU1 110957Z 11006KT M03/M07 A2996 RMK A01 T10271073  RH  071%=      5-min Rain = 0
KGU1 110958Z 11004KT M03/M07 A2996 RMK A01 T10271074  RH  071%=      5-min Rain = 0
KGU1 110959Z 11004KT M03/M07 A2996 RMK A01 T10271073  RH  072%=      5-min Rain = 0
KGU1 111000Z 09006KT M03/M07 A2996 RMK A01 T10281073  RH  072%=      5-min Rain = 0
KGU1 111001Z 10005KT M03/M07 A2997 RMK A01 T10281074  RH  072%=      5-min Rain = 0
KGU1 111002Z 10006KT M03/M07 A2997 RMK A01 T10291074  RH  072%=      5-min Rain = 0
KGU1 111003Z 09006KT M03/M08 A2996 RMK A01 T10291075  RH  072%=      5-min Rain = 0
KGU1 111004Z 09006KT M03/M08 A2996 RMK A01 T10301076  RH  072%=      5-min Rain = 0
KGU1 111005Z 11004KT M03/M08 A2997 RMK A01 T10301076  RH  071%=      5-min Rain = 0
KGU1 111006Z 12004KT M03/M08 A2997 RMK A01 T10311077  RH  071%=      5-min Rain = 0
KGU1 111007Z 11006KT M03/M08 A2996 RMK A01 T10321078  RH  071%=      5-min Rain = 0
KGU1 111008Z 09004KT M03/M08 A2996 RMK A01 T10331078  RH  072%=      5-min Rain = 0
KGU1 111009Z 11003KT M03/M08 A2997 RMK A01 T10331078  RH  072%=      5-min Rain = 0
KGU1 111010Z 10004KT M03/M08 A2997 RMK A01 T10331078  RH  072%=      5-min Rain = 0
KGU1 111011Z 10004KT M03/M08 A2997 RMK A01 T10341078  RH  072%=      5-min Rain = 0
KGU1 111012Z 15004KT M03/M08 A2998 RMK A01 T10341078  RH  072%=      5-min Rain = 0
KGU1 111013Z 13005KT M03/M08 A2998 RMK A01 T10341079  RH  072%=      5-min Rain = 0
KGU1 111014Z 11006KT M04/M08 A2996 RMK A01 T10351079  RH  072%=      5-min Rain = 0
KGU1 111015Z 09005KT M04/M08 A2997 RMK A01 T10351080  RH  072%=      5-min Rain = 0
KGU1 111016Z 09006KT M04/M08 A2997 RMK A01 T10361081  RH  072%=      5-min Rain = 0
KGU1 111017Z 11007KT M04/M08 A2997 RMK A01 T10361082  RH  071%=      5-min Rain = 0
KGU1 111018Z 11008KT M04/M08 A2996 RMK A01 T10371083  RH  072%=      5-min Rain = 0
KGU1 111019Z 10005KT M04/M08 A2997 RMK A01 T10391083  RH  072%=      5-min Rain = 0
KGU1 111020Z 10007KT M04/M08 A2998 RMK A01 T10391084  RH  072%=      5-min Rain = 0
KGU1 111021Z 12007KT M04/M09 A2998 RMK A01 T10411086  RH  072%=      5-min Rain = 0
KGU1 111022Z 13007KT M04/M09 A2997 RMK A01 T10421087  RH  072%=      5-min Rain = 0
KGU1 111023Z 11007KT M04/M09 A2997 RMK A01 T10431087  RH  072%=      5-min Rain = 0
KGU1 111024Z 11004KT M04/M09 A2998 RMK A01 T10441088  RH  072%=      5-min Rain = 0
KGU1 111025Z 11005KT M05/M09 A2998 RMK A01 T10451089  RH  072%=      5-min Rain = 0
KGU1 111026Z 12006KT M05/M09 A2998 RMK A01 T10461090  RH  072%=      5-min Rain = 0
KGU1 111027Z 12006KT M05/M09 A2998 RMK A01 T10471090  RH  072%=      5-min Rain = 0
KGU1 111028Z 11007KT M05/M09 A2998 RMK A01 T10481091  RH  072%=      5-min Rain = 0
KGU1 111029Z 11006KT M05/M09 A2998 RMK A01 T10481091  RH  073%=      5-min Rain = 0
KGU1 111030Z 11007KT M05/M09 A2998 RMK A01 T10491091  RH  073%=      5-min Rain = 0
KGU1 111031Z 12008KT M05/M09 A2998 RMK A01 T10491092  RH  073%=      5-min Rain = 0
KGU1 111032Z 11008KT M05/M09 A2998 RMK A01 T10501093  RH  073%=      5-min Rain = 0
KGU1 111033Z 13007KT M05/M10 A2998 RMK A01 T10511095  RH  072%=      5-min Rain = 0
KGU1 111034Z 13006KT M05/M10 A2998 RMK A01 T10511095  RH  072%=      5-min Rain = 0
KGU1 111035Z 13003KT M05/M10 A2999 RMK A01 T10521096  RH  072%=      5-min Rain = 0
KGU1 111036Z 13007KT M05/M10 A2998 RMK A01 T10531097  RH  072%=      5-min Rain = 0
KGU1 111037Z 13007KT M05/M10 A2998 RMK A01 T10531099  RH  071%=      5-min Rain = 0
KGU1 111038Z 13007KT M06/M10 A2998 RMK A01 T10551100  RH  071%=      5-min Rain = 0
KGU1 111039Z 11008KT M06/M10 A2998 RMK A01 T10561101  RH  071%=      5-min Rain = 0
KGU1 111040Z 12006KT M06/M10 A2999 RMK A01 T10571102  RH  071%=      5-min Rain = 0
KGU1 111041Z 11007KT M06/M10 A2998 RMK A01 T10581103  RH  072%=      5-min Rain = 0
KGU1 111042Z 11006KT M06/M10 A2999 RMK A01 T10591103  RH  072%=      5-min Rain = 0
KGU1 111043Z 13003KT M06/M10 A2999 RMK A01 T10591103  RH  072%=      5-min Rain = 0
KGU1 111044Z 12005KT M06/M10 A2999 RMK A01 T10591104  RH  072%=      5-min Rain = 0
KGU1 111045Z 12007KT M06/M10 A2999 RMK A01 T10591104  RH  071%=      5-min Rain = 0
KGU1 111046Z 12007KT M06/M11 A2999 RMK A01 T10591105  RH  071%=      5-min Rain = 0
KGU1 111047Z 12006KT M06/M11 A2999 RMK A01 T10601106  RH  071%=      5-min Rain = 0
KGU1 111048Z 11004KT M06/M11 A2999 RMK A01 T10611107  RH  071%=      5-min Rain = 0
KGU1 111049Z 09006KT M06/M11 A2999 RMK A01 T10611107  RH  071%=      5-min Rain = 0
KGU1 111050Z 09006KT M06/M11 A2999 RMK A01 T10621107  RH  071%=      5-min Rain = 0
KGU1 111051Z 12006KT M06/M11 A2999 RMK A01 T10621108  RH  071%=      5-min Rain = 0
KGU1 111052Z 11004KT M06/M11 A2999 RMK A01 T10631108  RH  071%=      5-min Rain = 0
KGU1 111053Z 12003KT M06/M11 A2999 RMK A01 T10631108  RH  071%=      5-min Rain = 0
KGU1 111054Z 13005KT M06/M11 A30 RMK A01 T10631109  RH  071%=      5-min Rain = 0
KGU1 111055Z 12006KT M06/M11 A2999 RMK A01 T10631109  RH  071%=      5-min Rain = 0
KGU1 111056Z 10005KT M06/M11 A2999 RMK A01 T10631109  RH  071%=      5-min Rain = 0
KGU1 111057Z 11007KT M06/M11 A2999 RMK A01 T10631110  RH  070%=      5-min Rain = 0
KGU1 111058Z 11008KT M06/M11 A2999 RMK A01 T10641111  RH  070%=      5-min Rain = 0
KGU1 111059Z 12008KT M07/M11 A2999 RMK A01 T10651112  RH  070%=      5-min Rain = 0
KGU1 111100Z 14006KT M07/M11 A30 RMK A01 T10651112  RH  070%=      5-min Rain = 0
KGU1 111101Z 11007KT M07/M11 A2999 RMK A01 T10661112  RH  071%=      5-min Rain = 0
KGU1 111102Z 12006KT M07/M11 A2999 RMK A01 T10671113  RH  071%=      5-min Rain = 0
KGU1 111103Z 14006KT M07/M11 A30 RMK A01 T10671113  RH  071%=      5-min Rain = 0
KGU1 111104Z 10006KT M07/M11 A2999 RMK A01 T10671113  RH  071%=      5-min Rain = 0
KGU1 111105Z 10007KT M07/M11 A2998 RMK A01 T10671113  RH  071%=      5-min Rain = 0
KGU1 111106Z 11003KT M07/M11 A30 RMK A01 T10671113  RH  071%=      5-min Rain = 0
KGU1 111107Z 09003KT M07/M11 A2999 RMK A01 T10671114  RH  071%=      5-min Rain = 0
KGU1 111108Z 09004KT M07/M11 A2999 RMK A01 T10681114  RH  071%=      5-min Rain = 0
KGU1 111109Z 10003KT M07/M11 A2999 RMK A01 T10681114  RH  071%=      5-min Rain = 0
KGU1 111110Z 09002KT M07/M11 A2999 RMK A01 T10681114  RH  071%=      5-min Rain = 0
KGU1 111111Z 10004KT M07/M11 A2999 RMK A01 T10681114  RH  071%=      5-min Rain = 0
KGU1 111112Z 11003KT M07/M11 A2999 RMK A01 T10681114  RH  071%=      5-min Rain = 0
KGU1 111113Z 11004KT M07/M11 A30 RMK A01 T10681114  RH  071%=      5-min Rain = 0
KGU1 111114Z 11007KT M07/M12 A2999 RMK A01 T10681115  RH  071%=      5-min Rain = 0
KGU1 111115Z 10006KT M07/M12 A2999 RMK A01 T10691115  RH  071%=      5-min Rain = 0
KGU1 111116Z 10005KT M07/M12 A2999 RMK A01 T10701116  RH  071%=      5-min Rain = 0
KGU1 111117Z 12006KT M07/M12 A2999 RMK A01 T10701116  RH  071%=      5-min Rain = 0
KGU1 111118Z 14004KT M07/M12 A30 RMK A01 T10701116  RH  071%=      5-min Rain = 0
KGU1 111119Z 10005KT M07/M12 A30 RMK A01 T10711117  RH  071%=      5-min Rain = 0
KGU1 111120Z 10006KT M07/M12 A2999 RMK A01 T10711117  RH  071%=      5-min Rain = 0
KGU1 111121Z 11003KT M07/M12 A30 RMK A01 T10711117  RH  071%=      5-min Rain = 0
KGU1 111122Z 12005KT M07/M12 A30 RMK A01 T10711117  RH  071%=      5-min Rain = 0
KGU1 111123Z 11004KT M07/M12 A30 RMK A01 T10721118  RH  071%=      5-min Rain = 0
KGU1 111124Z 09003KT M07/M12 A30 RMK A01 T10721118  RH  071%=      5-min Rain = 0
KGU1 111125Z 11006KT M07/M12 A2999 RMK A01 T10721118  RH  071%=      5-min Rain = 0
KGU1 111126Z 10003KT M07/M12 A30 RMK A01 T10721118  RH  071%=      5-min Rain = 0
KGU1 111127Z 09003KT M07/M12 A30 RMK A01 T10721118  RH  071%=      5-min Rain = 0
KGU1 111128Z 11004KT M07/M12 A30 RMK A01 T10721118  RH  071%=      5-min Rain = 0
KGU1 111129Z 11003KT M07/M12 A30 RMK A01 T10721118  RH  071%=      5-min Rain = 0
KGU1 111130Z 10003KT M07/M12 A30 RMK A01 T10721118  RH  071%=      5-min Rain = 0
KGU1 111131Z 09005KT M07/M12 A30 RMK A01 T10731119  RH  071%=      5-min Rain = 0
KGU1 111132Z 09004KT M07/M12 A30 RMK A01 T10731119  RH  071%=      5-min Rain = 0
KGU1 111133Z 13002KT M07/M12 A3001 RMK A01 T10731119  RH  071%=      5-min Rain = 0
KGU1 111134Z 10005KT M07/M12 A30 RMK A01 T10731120  RH  071%=      5-min Rain = 0
KGU1 111135Z 10004KT M07/M12 A30 RMK A01 T10741120  RH  071%=      5-min Rain = 0
KGU1 111136Z 10002KT M07/M12 A3001 RMK A01 T10741120  RH  070%=      5-min Rain = 0
KGU1 111137Z 10006KT M07/M12 A30 RMK A01 T10731121  RH  070%=      5-min Rain = 0
KGU1 111138Z 09005KT M07/M12 A30 RMK A01 T10741121  RH  070%=      5-min Rain = 0
KGU1 111139Z 10004KT M07/M12 A30 RMK A01 T10741121  RH  070%=      5-min Rain = 0
KGU1 111140Z 14003KT M08/M12 A3001 RMK A01 T10751122  RH  070%=      5-min Rain = 0
KGU1 111141Z 12002KT M08/M12 A3001 RMK A01 T10751122  RH  070%=      5-min Rain = 0
KGU1 111142Z 10004KT M08/M12 A30 RMK A01 T10751122  RH  070%=      5-min Rain = 0
KGU1 111143Z 10004KT M08/M12 A30 RMK A01 T10761122  RH  071%=      5-min Rain = 0
KGU1 111144Z 09003KT M08/M12 A3001 RMK A01 T10761122  RH  071%=      5-min Rain = 0
KGU1 111145Z 11002KT M08/M12 A3001 RMK A01 T10771122  RH  071%=      5-min Rain = 0
KGU1 111146Z 10003KT M08/M12 A3001 RMK A01 T10771122  RH  071%=      5-min Rain = 0
KGU1 111147Z 08004KT M08/M12 A30 RMK A01 T10771122  RH  071%=      5-min Rain = 0
KGU1 111148Z 09003KT M08/M12 A3001 RMK A01 T10771122  RH  071%=      5-min Rain = 0
KGU1 111149Z 10003KT M08/M12 A3001 RMK A01 T10771122  RH  071%=      5-min Rain = 0
KGU1 111150Z 11005KT M08/M12 A3001 RMK A01 T10771122  RH  071%=      5-min Rain = 0
KGU1 111151Z 11004KT M08/M12 A3001 RMK A01 T10771122  RH  071%=      5-min Rain = 0
KGU1 111152Z 10004KT M08/M12 A3001 RMK A01 T10771122  RH  071%=      5-min Rain = 0
KGU1 111153Z 11006KT M08/M12 A30 RMK A01 T10781122  RH  071%=      5-min Rain = 0
KGU1 111154Z 13004KT M08/M12 A3001 RMK A01 T10781122  RH  071%=      5-min Rain = 0
KGU1 111155Z 11003KT M08/M12 A3001 RMK A01 T10781122  RH  071%=      5-min Rain = 0
KGU1 111156Z 12005KT M08/M12 A3001 RMK A01 T10791123  RH  071%=      5-min Rain = 0
KGU1 111157Z 12005KT M08/M12 A3001 RMK A01 T10791123  RH  072%=      5-min Rain = 0
KGU1 111158Z 13003KT M08/M12 A3001 RMK A01 T10801123  RH  072%=      5-min Rain = 0
KGU1 111159Z 11003KT M08/M12 A3001 RMK A01 T10801124  RH  072%=      5-min Rain = 0
KGU1 111200Z 10004KT M08/M12 A3001 RMK A01 T10801124  RH  072%=      5-min Rain = 0
KGU1 111201Z 11003KT M08/M12 A3001 RMK A01 T10801124  RH  072%=      5-min Rain = 0
KGU1 111202Z 09003KT M08/M12 A3001 RMK A01 T10801123  RH  072%=      5-min Rain = 0
KGU1 111203Z 10005KT M08/M12 A3001 RMK A01 T10801124  RH  072%=      5-min Rain = 0
KGU1 111204Z 12004KT M08/M12 A3001 RMK A01 T10801124  RH  072%=      5-min Rain = 0
KGU1 111205Z 11004KT M08/M12 A3001 RMK A01 T10801124  RH  072%=      5-min Rain = 0
KGU1 111206Z 10005KT M08/M12 A3001 RMK A01 T10811124  RH  072%=      5-min Rain = 0
KGU1 111207Z 11006KT M08/M12 A3001 RMK A01 T10811124  RH  072%=      5-min Rain = 0
KGU1 111208Z 11007KT M08/M13 A3001 RMK A01 T10811125  RH  072%=      5-min Rain = 0
KGU1 111209Z 12006KT M08/M13 A3002 RMK A01 T10811125  RH  072%=      5-min Rain = 0
KGU1 111210Z 12005KT M08/M13 A3002 RMK A01 T10821126  RH  072%=      5-min Rain = 0
KGU1 111211Z 11006KT M08/M13 A3001 RMK A01 T10821126  RH  072%=      5-min Rain = 0
KGU1 111212Z 11007KT M08/M13 A3001 RMK A01 T10821126  RH  072%=      5-min Rain = 0
KGU1 111213Z 11007KT M08/M13 A3002 RMK A01 T10831126  RH  072%=      5-min Rain = 0
KGU1 111214Z 11008KT M08/M13 A3002 RMK A01 T10831127  RH  071%=      5-min Rain = 0
KGU1 111215Z 12008KT M08/M13 A3002 RMK A01 T10841128  RH  072%=      5-min Rain = 0
KGU1 111216Z 13006KT M09/M13 A3002 RMK A01 T10851129  RH  072%=      5-min Rain = 0
KGU1 111217Z 12005KT M09/M13 A3002 RMK A01 T10861129  RH  072%=      5-min Rain = 0
KGU1 111218Z 11006KT M09/M13 A3002 RMK A01 T10871129  RH  073%=      5-min Rain = 0
KGU1 111219Z 11005KT M09/M13 A3002 RMK A01 T10871129  RH  073%=      5-min Rain = 0
KGU1 111220Z 11006KT M09/M13 A3002 RMK A01 T10881129  RH  073%=      5-min Rain = 0
KGU1 111221Z 12007KT M09/M13 A3002 RMK A01 T10881130  RH  073%=      5-min Rain = 0
KGU1 111222Z 12005KT M09/M13 A3002 RMK A01 T10881130  RH  073%=      5-min Rain = 0
KGU1 111223Z 11004KT M09/M13 A3002 RMK A01 T10891130  RH  073%=      5-min Rain = 0
KGU1 111224Z 12005KT M09/M13 A3002 RMK A01 T10891130  RH  073%=      5-min Rain = 0
KGU1 111225Z 12004KT M09/M13 A3002 RMK A01 T10891130  RH  073%=      5-min Rain = 0
KGU1 111226Z 13004KT M09/M13 A3002 RMK A01 T10891130  RH  073%=      5-min Rain = 0
KGU1 111227Z 11005KT M09/M13 A3002 RMK A01 T10901130  RH  074%=      5-min Rain = 0
KGU1 111228Z 10005KT M09/M13 A3002 RMK A01 T10901130  RH  074%=      5-min Rain = 0
KGU1 111229Z 10004KT M09/M13 A3003 RMK A01 T10901130  RH  074%=      5-min Rain = 0
KGU1 111230Z 09004KT M09/M13 A3003 RMK A01 T10911131  RH  074%=      5-min Rain = 0
KGU1 111231Z 10004KT M09/M13 A3002 RMK A01 T10911130  RH  074%=      5-min Rain = 0
KGU1 111232Z 11004KT M09/M13 A3003 RMK A01 T10911131  RH  074%=      5-min Rain = 0
KGU1 111233Z 11005KT M09/M13 A3003 RMK A01 T10911131  RH  074%=      5-min Rain = 0
KGU1 111234Z 11004KT M09/M13 A3003 RMK A01 T10921131  RH  074%=      5-min Rain = 0
KGU1 111235Z 10005KT M09/M13 A3003 RMK A01 T10921131  RH  074%=      5-min Rain = 0
KGU1 111236Z 10005KT M09/M13 A3002 RMK A01 T10921131  RH  075%=      5-min Rain = 0
KGU1 111237Z 11004KT M09/M13 A3003 RMK A01 T10921131  RH  075%=      5-min Rain = 0
KGU1 111238Z 11004KT M09/M13 A3003 RMK A01 T10921131  RH  075%=      5-min Rain = 0
KGU1 111239Z 12004KT M09/M13 A3003 RMK A01 T10921131  RH  075%=      5-min Rain = 0
KGU1 111240Z 11005KT M09/M13 A3003 RMK A01 T10931131  RH  075%=      5-min Rain = 0
KGU1 111241Z 12006KT M09/M13 A3003 RMK A01 T10941132  RH  075%=      5-min Rain = 0
KGU1 111242Z 12005KT M09/M13 A3003 RMK A01 T10941132  RH  075%=      5-min Rain = 0
KGU1 111243Z 12005KT M09/M13 A3003 RMK A01 T10941132  RH  075%=      5-min Rain = 0
KGU1 111244Z 13004KT M09/M13 A3003 RMK A01 T10941132  RH  075%=      5-min Rain = 0
KGU1 111245Z 12003KT M10/M13 A3003 RMK A01 T10951132  RH  076%=      5-min Rain = 0
KGU1 111246Z 12003KT M10/M13 A3003 RMK A01 T10951132  RH  076%=      5-min Rain = 0
KGU1 111247Z 12005KT M10/M13 A3003 RMK A01 T10951132  RH  076%=      5-min Rain = 0
KGU1 111248Z 11004KT M10/M13 A3003 RMK A01 T10951131  RH  076%=      5-min Rain = 0
KGU1 111249Z 13002KT M09/M13 A3004 RMK A01 T10941131  RH  076%=      5-min Rain = 0
KGU1 111250Z 11005KT M09/M13 A3003 RMK A01 T10941131  RH  075%=      5-min Rain = 0
KGU1 111251Z 11005KT M09/M13 A3003 RMK A01 T10941132  RH  075%=      5-min Rain = 0
KGU1 111252Z 14003KT M10/M13 A3004 RMK A01 T10951132  RH  076%=      5-min Rain = 0
KGU1 111253Z 13005KT M10/M13 A3003 RMK A01 T10951132  RH  076%=      5-min Rain = 0
KGU1 111254Z 11006KT M10/M13 A3003 RMK A01 T10951132  RH  076%=      5-min Rain = 0
KGU1 111255Z 11001KT M10/M13 A3004 RMK A01 T10951132  RH  076%=      5-min Rain = 0
KGU1 111256Z 12003KT M10/M13 A3004 RMK A01 T10951132  RH  076%=      5-min Rain = 0
KGU1 111257Z 13004KT M10/M13 A3004 RMK A01 T10951132  RH  076%=      5-min Rain = 0
KGU1 111258Z 12004KT M10/M13 A3004 RMK A01 T10961132  RH  076%=      5-min Rain = 0
KGU1 111259Z 10005KT M10/M13 A3003 RMK A01 T10951132  RH  076%=      5-min Rain = 0
KGU1 111300Z 13003KT M10/M13 A3004 RMK A01 T10951132  RH  076%=      5-min Rain = 0
KGU1 111301Z 14004KT M10/M13 A3004 RMK A01 T10951132  RH  076%=      5-min Rain = 0
KGU1 111302Z 13005KT M10/M13 A3004 RMK A01 T10951132  RH  076%=      5-min Rain = 0
KGU1 111303Z 12004KT M10/M13 A3004 RMK A01 T10961132  RH  076%=      5-min Rain = 0
KGU1 111304Z 12004KT M10/M13 A3005 RMK A01 T10961132  RH  076%=      5-min Rain = 0
KGU1 111305Z 12003KT M10/M13 A3005 RMK A01 T10961132  RH  076%=      5-min Rain = 0
KGU1 111306Z 09003KT M10/M13 A3005 RMK A01 T10961132  RH  076%=      5-min Rain = 0
KGU1 111307Z 08003KT M10/M13 A3005 RMK A01 T10961132  RH  076%=      5-min Rain = 0
KGU1 111308Z 10003KT M10/M13 A3005 RMK A01 T10961132  RH  076%=      5-min Rain = 0
KGU1 111309Z 11003KT M10/M13 A3005 RMK A01 T10961132  RH  076%=      5-min Rain = 0
KGU1 111310Z 13001KT M10/M13 A3006 RMK A01 T10961132  RH  076%=      5-min Rain = 0
KGU1 111311Z 12003KT M10/M13 A3006 RMK A01 T10961132  RH  076%=      5-min Rain = 0
KGU1 111312Z 10006KT M10/M13 A3004 RMK A01 T10961132  RH  076%=      5-min Rain = 0
KGU1 111313Z 09004KT M10/M13 A3005 RMK A01 T10961132  RH  077%=      5-min Rain = 0
KGU1 111314Z 06000KT M10/M13 A3006 RMK A01 T10961132  RH  076%=      5-min Rain = 0
KGU1 111315Z 10003KT M10/M13 A3006 RMK A01 T10961132  RH  076%=      5-min Rain = 0
KGU1 111316Z 08006KT M10/M13 A3005 RMK A01 T10961131  RH  076%=      5-min Rain = 0
KGU1 111317Z 08003KT M10/M13 A3006 RMK A01 T10961131  RH  076%=      5-min Rain = 0
KGU1 111318Z 11001KT M10/M13 A3006 RMK A01 T10951131  RH  076%=      5-min Rain = 0
KGU1 111319Z 09004KT M10/M13 A3005 RMK A01 T10951131  RH  076%=      5-min Rain = 0
KGU1 111320Z 08006KT M10/M13 A3005 RMK A01 T10951131  RH  076%=      5-min Rain = 0
KGU1 111321Z 08003KT M09/M13 A3006 RMK A01 T10941131  RH  076%=      5-min Rain = 0
KGU1 111322Z 11003KT M09/M13 A3006 RMK A01 T10931131  RH  075%=      5-min Rain = 0
KGU1 111323Z 11003KT M09/M13 A3006 RMK A01 T10931131  RH  075%=      5-min Rain = 0
KGU1 111324Z 10003KT M09/M13 A3006 RMK A01 T10931131  RH  075%=      5-min Rain = 0
KGU1 111325Z 10002KT M09/M13 A3006 RMK A01 T10931131  RH  075%=      5-min Rain = 0
KGU1 111326Z 12002KT M09/M13 A3006 RMK A01 T10931131  RH  075%=      5-min Rain = 0
KGU1 111327Z 08004KT M09/M13 A3006 RMK A01 T10941132  RH  075%=      5-min Rain = 0
KGU1 111328Z 07003KT M09/M13 A3007 RMK A01 T10941131  RH  075%=      5-min Rain = 0
KGU1 111329Z 07003KT M09/M13 A3007 RMK A01 T10941131  RH  075%=      5-min Rain = 0
KGU1 111330Z 07004KT M09/M13 A3007 RMK A01 T10941131  RH  075%=      5-min Rain = 0
KGU1 111331Z 08005KT M09/M13 A3007 RMK A01 T10941132  RH  075%=      5-min Rain = 0
KGU1 111332Z 06004KT M09/M13 A3007 RMK A01 T10941131  RH  075%=      5-min Rain = 0
KGU1 111333Z 06004KT M09/M13 A3007 RMK A01 T10941131  RH  075%=      5-min Rain = 0
KGU1 111334Z 07003KT M09/M13 A3007 RMK A01 T10941131  RH  075%=      5-min Rain = 0
KGU1 111335Z 08004KT M09/M13 A3007 RMK A01 T10941131  RH  075%=      5-min Rain = 0
KGU1 111336Z 06005KT M09/M13 A3007 RMK A01 T10931131  RH  075%=      5-min Rain = 0
KGU1 111337Z 06004KT M09/M13 A3007 RMK A01 T10931131  RH  075%=      5-min Rain = 0
KGU1 111338Z 07004KT M09/M13 A3007 RMK A01 T10931131  RH  075%=      5-min Rain = 0
KGU1 111339Z 07003KT M09/M13 A3007 RMK A01 T10931131  RH  075%=      5-min Rain = 0
KGU1 111340Z 06003KT M09/M13 A3007 RMK A01 T10931131  RH  075%=      5-min Rain = 0
KGU1 111341Z 06005KT M09/M13 A3007 RMK A01 T10931132  RH  075%=      5-min Rain = 0
KGU1 111342Z 06005KT M09/M13 A3007 RMK A01 T10931131  RH  075%=      5-min Rain = 0
KGU1 111343Z 04005KT M09/M13 A3007 RMK A01 T10941131  RH  075%=      5-min Rain = 0
KGU1 111344Z 05003KT M09/M13 A3007 RMK A01 T10941132  RH  075%=      5-min Rain = 0
KGU1 111345Z 06003KT M09/M13 A3007 RMK A01 T10941131  RH  075%=      5-min Rain = 0
KGU1 111346Z 07005KT M09/M13 A3007 RMK A01 T10941131  RH  075%=      5-min Rain = 0
KGU1 111347Z 05003KT M09/M13 A3008 RMK A01 T10941131  RH  075%=      5-min Rain = 0
KGU1 111348Z 05003KT M09/M13 A3008 RMK A01 T10931131  RH  075%=      5-min Rain = 0
KGU1 111349Z 06005KT M09/M13 A3008 RMK A01 T10921131  RH  075%=      5-min Rain = 0
KGU1 111350Z 05005KT M09/M13 A3008 RMK A01 T10921131  RH  075%=      5-min Rain = 0
KGU1 111351Z 05005KT M09/M13 A3008 RMK A01 T10921131  RH  074%=      5-min Rain = 0
KGU1 111352Z 06004KT M09/M13 A3008 RMK A01 T10921131  RH  074%=      5-min Rain = 0
KGU1 111353Z 06003KT M09/M13 A3008 RMK A01 T10921131  RH  074%=      5-min Rain = 0
KGU1 111354Z 06005KT M09/M13 A3008 RMK A01 T10911131  RH  074%=      5-min Rain = 0
KGU1 111355Z 05006KT M09/M13 A3008 RMK A01 T10911131  RH  074%=      5-min Rain = 0
KGU1 111356Z 04005KT M09/M13 A3008 RMK A01 T10911131  RH  074%=      5-min Rain = 0
KGU1 111357Z 05004KT M09/M13 A3008 RMK A01 T10911131  RH  074%=      5-min Rain = 0
KGU1 111358Z 05005KT M09/M13 A3008 RMK A01 T10911131  RH  074%=      5-min Rain = 0
KGU1 111359Z 05004KT M09/M13 A3008 RMK A01 T10911130  RH  074%=      5-min Rain = 0
KGU1 111400Z 06003KT M09/M13 A3008 RMK A01 T10901130  RH  074%=      5-min Rain = 0
KGU1 111401Z 07004KT M09/M13 A3008 RMK A01 T10901131  RH  074%=      5-min Rain = 0
KGU1 111402Z 05004KT M09/M13 A3008 RMK A01 T10901130  RH  074%=      5-min Rain = 0
KGU1 111403Z 04005KT M09/M13 A3008 RMK A01 T10891130  RH  073%=      5-min Rain = 0
KGU1 111404Z 05005KT M09/M13 A3008 RMK A01 T10891130  RH  073%=      5-min Rain = 0
KGU1 111405Z 06004KT M09/M13 A3009 RMK A01 T10891130  RH  073%=      5-min Rain = 0
KGU1 111406Z 05004KT M09/M13 A3009 RMK A01 T10881130  RH  073%=      5-min Rain = 0
KGU1 111407Z 05004KT M09/M13 A3009 RMK A01 T10881130  RH  073%=      5-min Rain = 0
KGU1 111408Z 06004KT M09/M13 A3009 RMK A01 T10871129  RH  072%=      5-min Rain = 0
KGU1 111409Z 06005KT M09/M13 A3009 RMK A01 T10861130  RH  072%=      5-min Rain = 0
KGU1 111410Z 07003KT M09/M13 A3009 RMK A01 T10861130  RH  072%=      5-min Rain = 0
KGU1 111411Z 06004KT M09/M13 A3009 RMK A01 T10861130  RH  072%=      5-min Rain = 0
KGU1 111412Z 05005KT M09/M13 A3009 RMK A01 T10861130  RH  072%=      5-min Rain = 0
KGU1 111413Z 05005KT M09/M13 A3009 RMK A01 T10861130  RH  072%=      5-min Rain = 0
KGU1 111414Z 06005KT M09/M13 A3009 RMK A01 T10861130  RH  072%=      5-min Rain = 0
KGU1 111415Z 05003KT M09/M13 A3009 RMK A01 T10861129  RH  072%=      5-min Rain = 0
KGU1 111416Z 03004KT M09/M13 A3009 RMK A01 T10861129  RH  072%=      5-min Rain = 0
KGU1 111417Z 04005KT M09/M13 A3009 RMK A01 T10851129  RH  072%=      5-min Rain = 0
KGU1 111418Z 04005KT M09/M13 A3009 RMK A01 T10851129  RH  072%=      5-min Rain = 0
KGU1 111419Z 04005KT M09/M13 A3009 RMK A01 T10851129  RH  071%=      5-min Rain = 0
KGU1 111420Z 02004KT M08/M13 A301 RMK A01 T10841129  RH  071%=      5-min Rain = 0
KGU1 111421Z 02004KT M08/M13 A301 RMK A01 T10831128  RH  071%=      5-min Rain = 0
KGU1 111422Z 03005KT M08/M13 A301 RMK A01 T10831128  RH  071%=      5-min Rain = 0
KGU1 111423Z 03005KT M08/M13 A301 RMK A01 T10831128  RH  071%=      5-min Rain = 0
KGU1 111424Z 03005KT M08/M13 A301 RMK A01 T10821127  RH  071%=      5-min Rain = 0
KGU1 111425Z 03005KT M08/M13 A301 RMK A01 T10811127  RH  071%=      5-min Rain = 0
KGU1 111426Z 03005KT M08/M13 A301 RMK A01 T10801126  RH  070%=      5-min Rain = 0
KGU1 111427Z 04004KT M08/M13 A301 RMK A01 T10791126  RH  070%=      5-min Rain = 0
KGU1 111428Z 03006KT M08/M13 A301 RMK A01 T10781126  RH  070%=      5-min Rain = 0
KGU1 111429Z 04007KT M08/M13 A301 RMK A01 T10781126  RH  069%=      5-min Rain = 0
KGU1 111430Z 04007KT M08/M13 A301 RMK A01 T10781126  RH  069%=      5-min Rain = 0
KGU1 111431Z 05007KT M08/M13 A301 RMK A01 T10781125  RH  070%=      5-min Rain = 0
KGU1 111432Z 05005KT M08/M13 A301 RMK A01 T10771125  RH  070%=      5-min Rain = 0
KGU1 111433Z 06006KT M08/M13 A301 RMK A01 T10771125  RH  069%=      5-min Rain = 0
KGU1 111434Z 06005KT M08/M13 A301 RMK A01 T10761125  RH  069%=      5-min Rain = 0
KGU1 111435Z 06006KT M08/M13 A3011 RMK A01 T10751125  RH  069%=      5-min Rain = 0
KGU1 111436Z 06005KT M08/M12 A301 RMK A01 T10751124  RH  069%=      5-min Rain = 0
KGU1 111437Z 06006KT M07/M12 A301 RMK A01 T10741124  RH  068%=      5-min Rain = 0
KGU1 111438Z 06006KT M07/M12 A3011 RMK A01 T10741124  RH  068%=      5-min Rain = 0
KGU1 111439Z 06006KT M07/M12 A3011 RMK A01 T10731124  RH  068%=      5-min Rain = 0
KGU1 111440Z 06005KT M07/M12 A3011 RMK A01 T10731124  RH  068%=      5-min Rain = 0
KGU1 111441Z 06005KT M07/M12 A3011 RMK A01 T10731124  RH  068%=      5-min Rain = 0
KGU1 111442Z 05005KT M07/M12 A3011 RMK A01 T10721124  RH  068%=      5-min Rain = 0
KGU1 111443Z 05007KT M07/M12 A3011 RMK A01 T10721124  RH  067%=      5-min Rain = 0
KGU1 111444Z 05008KT M07/M12 A3011 RMK A01 T10721123  RH  068%=      5-min Rain = 0
KGU1 111445Z 05006KT M07/M12 A3011 RMK A01 T10721123  RH  068%=      5-min Rain = 0
KGU1 111446Z 05006KT M07/M12 A3011 RMK A01 T10711123  RH  068%=      5-min Rain = 0
KGU1 111447Z 04005KT M07/M12 A3011 RMK A01 T10711123  RH  067%=      5-min Rain = 0
KGU1 111448Z 04007KT M07/M12 A3011 RMK A01 T10701122  RH  067%=      5-min Rain = 0
KGU1 111449Z 05006KT M07/M12 A3011 RMK A01 T10691122  RH  067%=      5-min Rain = 0
KGU1 111450Z 05006KT M07/M12 A3011 RMK A01 T10691122  RH  067%=      5-min Rain = 0
KGU1 111451Z 06006KT M07/M12 A3011 RMK A01 T10691122  RH  067%=      5-min Rain = 0
KGU1 111452Z 07008KT M07/M12 A3011 RMK A01 T10681123  RH  066%=      5-min Rain = 0
KGU1 111453Z 06006KT M07/M12 A3011 RMK A01 T10681123  RH  066%=      5-min Rain = 0
KGU1 111454Z 06007KT M07/M12 A3011 RMK A01 T10681122  RH  066%=      5-min Rain = 0
KGU1 111455Z 07007KT M07/M12 A3011 RMK A01 T10681123  RH  066%=      5-min Rain = 0
KGU1 111456Z 06005KT M07/M12 A3012 RMK A01 T10671122  RH  066%=      5-min Rain = 0
KGU1 111457Z 06007KT M07/M12 A3012 RMK A01 T10671122  RH  066%=      5-min Rain = 0
KGU1 111458Z 05007KT M07/M12 A3012 RMK A01 T10671122  RH  066%=      5-min Rain = 0
KGU1 111459Z 05008KT M07/M12 A3012 RMK A01 T10661121  RH  066%=      5-min Rain = 0
KGU1 111500Z 05009KT M07/M12 A3011 RMK A01 T10661122  RH  065%=      5-min Rain = 0
KGU1 111501Z 06008KT M07/M12 A3011 RMK A01 T10661121  RH  066%=      5-min Rain = 0
KGU1 111502Z 07007KT M07/M12 A3011 RMK A01 T10651121  RH  066%=      5-min Rain = 0
KGU1 111503Z 06005KT M06/M12 A3012 RMK A01 T10641121  RH  065%=      5-min Rain = 0
KGU1 111504Z 07007KT M06/M12 A3012 RMK A01 T10631121  RH  064%=      5-min Rain = 0
KGU1 111505Z 06009KT M06/M12 A3012 RMK A01 T10641122  RH  064%=      5-min Rain = 0
KGU1 111506Z 07008KT M07/M12 A3012 RMK A01 T10651122  RH  064%=      5-min Rain = 0
KGU1 111507Z 07007KT M07/M12 A3012 RMK A01 T10651122  RH  065%=      5-min Rain = 0
KGU1 111508Z 08007KT M07/M12 A3012 RMK A01 T10651122  RH  065%=      5-min Rain = 0
KGU1 111509Z 07006KT M07/M12 A3013 RMK A01 T10651122  RH  065%=      5-min Rain = 0
KGU1 111510Z 07006KT M06/M12 A3013 RMK A01 T10641123  RH  064%=      5-min Rain = 0
KGU1 111511Z 06006KT M06/M12 A3013 RMK A01 T10641122  RH  064%=      5-min Rain = 0
KGU1 111512Z 08006KT M06/M12 A3013 RMK A01 T10641123  RH  064%=      5-min Rain = 0
KGU1 111513Z 07007KT M07/M12 A3013 RMK A01 T10651123  RH  064%=      5-min Rain = 0
KGU1 111514Z 08006KT M07/M12 A3013 RMK A01 T10661123  RH  065%=      5-min Rain = 0
KGU1 111515Z 08007KT M07/M12 A3013 RMK A01 T10661124  RH  064%=      5-min Rain = 0
KGU1 111516Z 07007KT M07/M12 A3013 RMK A01 T10671124  RH  065%=      5-min Rain = 0
KGU1 111517Z 07006KT M07/M12 A3013 RMK A01 T10671124  RH  065%=      5-min Rain = 0
KGU1 111518Z 07005KT M07/M12 A3013 RMK A01 T10661123  RH  065%=      5-min Rain = 0
KGU1 111519Z 08007KT M07/M12 A3014 RMK A01 T10651123  RH  064%=      5-min Rain = 0
KGU1 111520Z 07007KT M06/M12 A3014 RMK A01 T10641124  RH  063%=      5-min Rain = 0
KGU1 111521Z 07009KT M07/M12 A3014 RMK A01 T10651124  RH  064%=      5-min Rain = 0
KGU1 111522Z 07008KT M07/M12 A3014 RMK A01 T10661124  RH  064%=      5-min Rain = 0
KGU1 111523Z 07007KT M07/M12 A3014 RMK A01 T10661123  RH  065%=      5-min Rain = 0
KGU1 111524Z 07009KT M07/M12 A3014 RMK A01 T10651123  RH  065%=      5-min Rain = 0
KGU1 111525Z 07009KT M07/M12 A3014 RMK A01 T10651123  RH  064%=      5-min Rain = 0
KGU1 111526Z 07007KT M07/M12 A3014 RMK A01 T10651123  RH  064%=      5-min Rain = 0
KGU1 111527Z 07008KT M07/M12 A3014 RMK A01 T10651123  RH  064%=      5-min Rain = 0
KGU1 111528Z 06008KT M07/M12 A3014 RMK A01 T10651123  RH  064%=      5-min Rain = 0
KGU1 111529Z 07009KT M07/M12 A3014 RMK A01 T10651123  RH  065%=      5-min Rain = 0
KGU1 111530Z 07009KT M07/M12 A3014 RMK A01 T10651122  RH  065%=      5-min Rain = 0
KGU1 111531Z 07008KT M07/M12 A3014 RMK A01 T10651122  RH  065%=      5-min Rain = 0
KGU1 111532Z 06008KT M06/M12 A3014 RMK A01 T10641122  RH  064%=      5-min Rain = 0
KGU1 111533Z 06007KT M06/M12 A3014 RMK A01 T10641122  RH  064%=      5-min Rain = 0
KGU1 111534Z 07007KT M06/M12 A3014 RMK A01 T10641122  RH  064%=      5-min Rain = 0
KGU1 111535Z 06008KT M06/M12 A3014 RMK A01 T10631121  RH  064%=      5-min Rain = 0
KGU1 111536Z 06009KT M06/M12 A3014 RMK A01 T10631122  RH  064%=      5-min Rain = 0
KGU1 111537Z 06007KT M06/M12 A3014 RMK A01 T10631122  RH  064%=      5-min Rain = 0
KGU1 111538Z 07006KT M06/M12 A3014 RMK A01 T10621121  RH  064%=      5-min Rain = 0
KGU1 111539Z 07007KT M06/M12 A3014 RMK A01 T10611121  RH  063%=      5-min Rain = 0
KGU1 111540Z 07006KT M06/M12 A3014 RMK A01 T10601121  RH  063%=      5-min Rain = 0
KGU1 111541Z 07009KT M06/M12 A3014 RMK A01 T10591122  RH  062%=      5-min Rain = 0
KGU1 111542Z 08009KT M06/M12 A3014 RMK A01 T10611122  RH  063%=      5-min Rain = 0
KGU1 111543Z 07009KT M06/M12 A3015 RMK A01 T10611122  RH  063%=      5-min Rain = 0
KGU1 111544Z 07009KT M06/M12 A3015 RMK A01 T10611122  RH  063%=      5-min Rain = 0
KGU1 111545Z 06009KT M06/M12 A3015 RMK A01 T10621122  RH  063%=      5-min Rain = 0
KGU1 111546Z 06007KT M06/M12 A3015 RMK A01 T10621122  RH  064%=      5-min Rain = 0
KGU1 111547Z 07008KT M06/M12 A3015 RMK A01 T10621122  RH  064%=      5-min Rain = 0
KGU1 111548Z 07007KT M06/M12 A3015 RMK A01 T10621122  RH  064%=      5-min Rain = 0
KGU1 111549Z 06007KT M06/M12 A3015 RMK A01 T10611121  RH  063%=      5-min Rain = 0
KGU1 111550Z 07008KT M06/M12 A3015 RMK A01 T10611122  RH  063%=      5-min Rain = 0
KGU1 111551Z 07008KT M06/M12 A3015 RMK A01 T10621122  RH  063%=      5-min Rain = 0
KGU1 111552Z 07008KT M06/M12 A3015 RMK A01 T10611122  RH  063%=      5-min Rain = 0
KGU1 111553Z 06007KT M06/M12 A3015 RMK A01 T10611122  RH  063%=      5-min Rain = 0
KGU1 111554Z 07007KT M06/M12 A3015 RMK A01 T10611122  RH  063%=      5-min Rain = 0
KGU1 111555Z 06008KT M06/M12 A3015 RMK A01 T10611122  RH  063%=      5-min Rain = 0
KGU1 111556Z 06008KT M06/M12 A3015 RMK A01 T10611122  RH  063%=      5-min Rain = 0
KGU1 111557Z 06008KT M06/M12 A3015 RMK A01 T10611122  RH  063%=      5-min Rain = 0
KGU1 111558Z 07007KT M06/M12 A3015 RMK A01 T10611122  RH  063%=      5-min Rain = 0
KGU1 111559Z 05006KT M06/M12 A3015 RMK A01 T10601122  RH  062%=      5-min Rain = 0
KGU1 111600Z 07006KT M06/M12 A3015 RMK A01 T10591122  RH  062%=      5-min Rain = 0
KGU1 111601Z 08007KT M06/M12 A3015 RMK A01 T10581122  RH  062%=      5-min Rain = 0
KGU1 111602Z 07008KT M06/M12 A3015 RMK A01 T10581122  RH  062%=      5-min Rain = 0
KGU1 111603Z 07006KT M06/M12 A3015 RMK A01 T10591122  RH  062%=      5-min Rain = 0
KGU1 111604Z 07008KT M06/M12 A3015 RMK A01 T10581122  RH  062%=      5-min Rain = 0
KGU1 111605Z 07007KT M06/M12 A3015 RMK A01 T10591122  RH  062%=      5-min Rain = 0
KGU1 111606Z 07007KT M06/M12 A3015 RMK A01 T10591122  RH  062%=      5-min Rain = 0
KGU1 111607Z 06007KT M06/M12 A3015 RMK A01 T10591121  RH  062%=      5-min Rain = 0
KGU1 111608Z 06008KT M06/M12 A3015 RMK A01 T10581122  RH  062%=      5-min Rain = 0
KGU1 111609Z 07006KT M06/M12 A3015 RMK A01 T10581121  RH  062%=      5-min Rain = 0
KGU1 111610Z 07006KT M06/M12 A3015 RMK A01 T10571120  RH  062%=      5-min Rain = 0
KGU1 111611Z 06008KT M06/M12 A3015 RMK A01 T10561121  RH  061%=      5-min Rain = 0
KGU1 111612Z 06008KT M06/M12 A3015 RMK A01 T10561120  RH  061%=      5-min Rain = 0
KGU1 111613Z 06009KT M06/M12 A3015 RMK A01 T10561120  RH  061%=      5-min Rain = 0
KGU1 111614Z 06008KT M06/M12 A3015 RMK A01 T10561121  RH  061%=      5-min Rain = 0
KGU1 111615Z 07006KT M06/M12 A3015 RMK A01 T10561120  RH  062%=      5-min Rain = 0
KGU1 111616Z 07007KT M06/M12 A3015 RMK A01 T10551120  RH  061%=      5-min Rain = 0
KGU1 111617Z 05006KT M05/M12 A3015 RMK A01 T10541119  RH  061%=      5-min Rain = 0
KGU1 111618Z 05007KT M05/M12 A3015 RMK A01 T10531119  RH  061%=      5-min Rain = 0
KGU1 111619Z 05007KT M05/M12 A3015 RMK A01 T10511118  RH  060%=      5-min Rain = 0
KGU1 111620Z 04007KT M05/M12 A3015 RMK A01 T10511119  RH  059%=      5-min Rain = 0
KGU1 111621Z 05005KT M05/M12 A3015 RMK A01 T10511119  RH  060%=      5-min Rain = 0
KGU1 111622Z 07008KT M05/M12 A3015 RMK A01 T10511119  RH  060%=      5-min Rain = 0
KGU1 111623Z 07007KT M05/M12 A3015 RMK A01 T10521119  RH  060%=      5-min Rain = 0
KGU1 111624Z 07007KT M05/M12 A3015 RMK A01 T10521119  RH  060%=      5-min Rain = 0
KGU1 111625Z 07007KT M05/M12 A3015 RMK A01 T10521118  RH  060%=      5-min Rain = 0
KGU1 111626Z 07007KT M05/M12 A3015 RMK A01 T10511117  RH  060%=      5-min Rain = 0
KGU1 111627Z 07007KT M05/M12 A3015 RMK A01 T10491117  RH  060%=      5-min Rain = 0
KGU1 111628Z 06009KT M05/M12 A3015 RMK A01 T10491118  RH  059%=      5-min Rain = 0
KGU1 111629Z 06009KT M05/M12 A3015 RMK A01 T10491118  RH  059%=      5-min Rain = 0
KGU1 111630Z 06008KT M05/M12 A3015 RMK A01 T10491118  RH  059%=      5-min Rain = 0
KGU1 111631Z 06009KT M05/M12 A3015 RMK A01 T10491118  RH  059%=      5-min Rain = 0
KGU1 111632Z 06008KT M05/M12 A3015 RMK A01 T10501118  RH  059%=      5-min Rain = 0
KGU1 111633Z 05006KT M05/M12 A3015 RMK A01 T10491116  RH  060%=      5-min Rain = 0
KGU1 111634Z 05008KT M05/M12 A3015 RMK A01 T10471116  RH  059%=      5-min Rain = 0
KGU1 111635Z 05008KT M05/M12 A3015 RMK A01 T10471117  RH  059%=      5-min Rain = 0
KGU1 111636Z 06009KT M05/M12 A3015 RMK A01 T10481116  RH  059%=      5-min Rain = 0
KGU1 111637Z 06009KT M05/M12 A3015 RMK A01 T10481116  RH  060%=      5-min Rain = 0
KGU1 111638Z 07009KT M05/M12 A3015 RMK A01 T10481116  RH  060%=      5-min Rain = 0
KGU1 111639Z 06010KT M05/M12 A3015 RMK A01 T10481116  RH  060%=      5-min Rain = 0
KGU1 111640Z 06008KT M05/M12 A3015 RMK A01 T10481116  RH  060%=      5-min Rain = 0
KGU1 111641Z 06008KT M05/M12 A3015 RMK A01 T10471115  RH  060%=      5-min Rain = 0
KGU1 111642Z 05009KT M05/M12 A3015 RMK A01 T10461116  RH  059%=      5-min Rain = 0
KGU1 111643Z 04009KT M05/M12 A3015 RMK A01 T10471115  RH  060%=      5-min Rain = 0
KGU1 111644Z 04011KT M05/M12 A3015 RMK A01 T10461115  RH  059%=      5-min Rain = 0
KGU1 111645Z 04008KT M05/M12 A3015 RMK A01 T10451115  RH  059%=      5-min Rain = 0
KGU1 111646Z 04007KT M04/M11 A3015 RMK A01 T10441114  RH  059%=      5-min Rain = 0
KGU1 111647Z 04008KT M04/M11 A3015 RMK A01 T10431114  RH  058%=      5-min Rain = 0
KGU1 111648Z 06010KT M04/M12 A3015 RMK A01 T10431115  RH  058%=      5-min Rain = 0
KGU1 111649Z 06009KT M04/M11 A3015 RMK A01 T10441114  RH  059%=      5-min Rain = 0
KGU1 111650Z 06009KT M04/M11 A3015 RMK A01 T10441114  RH  059%=      5-min Rain = 0
KGU1 111651Z 06010KT M04/M11 A3015 RMK A01 T10431114  RH  059%=      5-min Rain = 0
KGU1 111652Z 07011KT M04/M12 A3015 RMK A01 T10431115  RH  058%=      5-min Rain = 0
KGU1 111653Z 07009KT M04/M11 A3015 RMK A01 T10441114  RH  059%=      5-min Rain = 0
KGU1 111654Z 06010KT M04/M11 A3015 RMK A01 T10431114  RH  058%=      5-min Rain = 0
KGU1 111655Z 05011KT M04/M11 A3015 RMK A01 T10431114  RH  059%=      5-min Rain = 0
KGU1 111656Z 05007KT M04/M11 A3016 RMK A01 T10421113  RH  058%=      5-min Rain = 0
KGU1 111657Z 07010KT M04/M11 A3016 RMK A01 T10411112  RH  058%=      5-min Rain = 0
KGU1 111658Z 07010KT M04/M11 A3016 RMK A01 T10411114  RH  058%=      5-min Rain = 0
KGU1 111659Z 06009KT M04/M11 A3016 RMK A01 T10411113  RH  058%=      5-min Rain = 0
KGU1 111700Z 06010KT M04/M11 A3016 RMK A01 T10401113  RH  058%=      5-min Rain = 0
KGU1 111701Z 07009KT M04/M11 A3016 RMK A01 T10401113  RH  058%=      5-min Rain = 0
KGU1 111702Z 05008KT M04/M11 A3016 RMK A01 T10391113  RH  057%=      5-min Rain = 0
KGU1 111703Z 07007KT M04/M11 A3016 RMK A01 T10381112  RH  057%=      5-min Rain = 0
KGU1 111704Z 07007KT M04/M11 A3016 RMK A01 T10381112  RH  057%=      5-min Rain = 0
KGU1 111705Z 08010KT M04/M11 A3016 RMK A01 T10361113  RH  056%=      5-min Rain = 0
KGU1 111706Z 08011KT M04/M11 A3016 RMK A01 T10351114  RH  055%=      5-min Rain = 0
KGU1 111707Z 08010KT M04/M11 A3016 RMK A01 T10381114  RH  056%=      5-min Rain = 0
KGU1 111708Z 08008KT M04/M11 A3016 RMK A01 T10391114  RH  057%=      5-min Rain = 0
KGU1 111709Z 07009KT M04/M11 A3016 RMK A01 T10371114  RH  056%=      5-min Rain = 0
KGU1 111710Z 07011KT M04/M12 A3016 RMK A01 T10371115  RH  056%=      5-min Rain = 0
KGU1 111711Z 07006KT M04/M11 A3016 RMK A01 T10381114  RH  056%=      5-min Rain = 0
KGU1 111712Z 06008KT M04/M11 A3016 RMK A01 T10371114  RH  056%=      5-min Rain = 0
KGU1 111713Z 07008KT M04/M11 A3016 RMK A01 T10361114  RH  055%=      5-min Rain = 0
KGU1 111714Z 07009KT M04/M12 A3016 RMK A01 T10361115  RH  055%=      5-min Rain = 0
KGU1 111715Z 07007KT M04/M11 A3016 RMK A01 T10361114  RH  056%=      5-min Rain = 0
KGU1 111716Z 08008KT M04/M11 A3016 RMK A01 T10361114  RH  055%=      5-min Rain = 0
KGU1 111717Z 07008KT M04/M11 A3016 RMK A01 T10351114  RH  055%=      5-min Rain = 0
KGU1 111718Z 07007KT M03/M12 A3016 RMK A01 T10341115  RH  055%=      5-min Rain = 0
KGU1 111719Z 08010KT M03/M12 A3016 RMK A01 T10341115  RH  054%=      5-min Rain = 0
KGU1 111720Z 09010KT M04/M12 A3016 RMK A01 T10361115  RH  055%=      5-min Rain = 0
KGU1 111721Z 08010KT M04/M12 A3016 RMK A01 T10381115  RH  056%=      5-min Rain = 0
KGU1 111722Z 07011KT M04/M12 A3016 RMK A01 T10381115  RH  056%=      5-min Rain = 0
KGU1 111723Z 08012KT M04/M12 A3015 RMK A01 T10381115  RH  056%=      5-min Rain = 0
KGU1 111724Z 08010KT M04/M12 A3015 RMK A01 T10381115  RH  056%=      5-min Rain = 0
KGU1 111725Z 07010KT M04/M12 A3016 RMK A01 T10371115  RH  055%=      5-min Rain = 0
KGU1 111726Z 09009KT M04/M11 A3016 RMK A01 T10371114  RH  056%=      5-min Rain = 0
KGU1 111727Z 08011KT M04/M12 A3016 RMK A01 T10371115  RH  055%=      5-min Rain = 0
KGU1 111728Z 08010KT M04/M12 A3016 RMK A01 T10371115  RH  056%=      5-min Rain = 0
KGU1 111729Z 09011KT M04/M12 A3016 RMK A01 T10361115  RH  055%=      5-min Rain = 0
KGU1 111730Z 08010KT M04/M12 A3016 RMK A01 T10351115  RH  055%=      5-min Rain = 0
KGU1 111731Z 08012KT M04/M12 A3016 RMK A01 T10361115  RH  055%=      5-min Rain = 0
KGU1 111732Z 09010KT M04/M12 A3016 RMK A01 T10371115  RH  056%=      5-min Rain = 0
KGU1 111733Z 07009KT M04/M11 A3016 RMK A01 T10361114  RH  055%=      5-min Rain = 0
KGU1 111734Z 08008KT M04/M11 A3016 RMK A01 T10361114  RH  055%=      5-min Rain = 0
KGU1 111735Z 09010KT M03/M11 A3016 RMK A01 T10341114  RH  054%=      5-min Rain = 0
KGU1 111736Z 08010KT M03/M11 A3016 RMK A01 T10341114  RH  055%=      5-min Rain = 0
KGU1 111737Z 08006KT M03/M11 A3016 RMK A01 T10341113  RH  055%=      5-min Rain = 0
KGU1 111738Z 08009KT M03/M11 A3016 RMK A01 T10321113  RH  054%=      5-min Rain = 0
KGU1 111739Z 08009KT M03/M11 A3016 RMK A01 T10311113  RH  054%=      5-min Rain = 0
KGU1 111740Z 08010KT M03/M11 A3016 RMK A01 T10301113  RH  053%=      5-min Rain = 0
KGU1 111741Z 08011KT M03/M11 A3016 RMK A01 T10301113  RH  053%=      5-min Rain = 0
KGU1 111742Z 07011KT M03/M11 A3016 RMK A01 T10291112  RH  053%=      5-min Rain = 0
KGU1 111743Z 07010KT M03/M11 A3016 RMK A01 T10301112  RH  054%=      5-min Rain = 0
KGU1 111744Z 08009KT M03/M11 A3016 RMK A01 T10281111  RH  054%=      5-min Rain = 0
KGU1 111745Z 06009KT M03/M11 A3016 RMK A01 T10251110  RH  053%=      5-min Rain = 0
KGU1 111746Z 06012KT M02/M11 A3016 RMK A01 T10241111  RH  052%=      5-min Rain = 0
KGU1 111747Z 06010KT M03/M11 A3016 RMK A01 T10251112  RH  052%=      5-min Rain = 0
KGU1 111748Z 06011KT M03/M11 A3016 RMK A01 T10261111  RH  053%=      5-min Rain = 0
KGU1 111749Z 06011KT M03/M11 A3016 RMK A01 T10271112  RH  053%=      5-min Rain = 0
KGU1 111750Z 06010KT M03/M11 A3016 RMK A01 T10281112  RH  053%=      5-min Rain = 0
KGU1 111751Z 08011KT M03/M11 A3016 RMK A01 T10281111  RH  054%=      5-min Rain = 0
KGU1 111752Z 08009KT M03/M11 A3016 RMK A01 T10281111  RH  053%=      5-min Rain = 0
KGU1 111753Z 08008KT M03/M11 A3016 RMK A01 T10281112  RH  053%=      5-min Rain = 0
KGU1 111754Z 07006KT M03/M11 A3016 RMK A01 T10281111  RH  054%=      5-min Rain = 0
KGU1 111755Z 09009KT M03/M11 A3016 RMK A01 T10271110  RH  054%=      5-min Rain = 0
KGU1 111756Z 10009KT M03/M11 A3016 RMK A01 T10261109  RH  054%=      5-min Rain = 0
KGU1 111757Z 08008KT M02/M11 A3016 RMK A01 T10241109  RH  053%=      5-min Rain = 0
KGU1 111758Z 06008KT M02/M11 A3016 RMK A01 T10231109  RH  052%=      5-min Rain = 0
KGU1 111759Z 07010KT M02/M11 A3016 RMK A01 T10221109  RH  052%=      5-min Rain = 0
KGU1 111800Z 08007KT M02/M11 A3016 RMK A01 T10221108  RH  052%=      5-min Rain = 0
KGU1 111801Z 06009KT M02/M11 A3016 RMK A01 T10211110  RH  051%=      5-min Rain = 0
KGU1 111802Z 06009KT M02/M11 A3016 RMK A01 T10221110  RH  052%=      5-min Rain = 0
KGU1 111803Z 06010KT M02/M11 A3016 RMK A01 T10231109  RH  052%=      5-min Rain = 0
KGU1 111804Z 06008KT M02/M11 A3016 RMK A01 T10231109  RH  052%=      5-min Rain = 0
KGU1 111805Z 04007KT M02/M11 A3015 RMK A01 T10221109  RH  052%=      5-min Rain = 0
KGU1 111806Z 05008KT M02/M11 A3015 RMK A01 T10201108  RH  052%=      5-min Rain = 0
KGU1 111807Z 07008KT M02/M11 A3015 RMK A01 T10191108  RH  051%=      5-min Rain = 0
KGU1 111808Z 08008KT M02/M11 A3015 RMK A01 T10191108  RH  051%=      5-min Rain = 0
KGU1 111809Z 09009KT M02/M11 A3015 RMK A01 T10181108  RH  051%=      5-min Rain = 0
KGU1 111810Z 08009KT M02/M11 A3015 RMK A01 T10191108  RH  051%=      5-min Rain = 0
KGU1 111811Z 06009KT M02/M11 A3015 RMK A01 T10191107  RH  051%=      5-min Rain = 0
KGU1 111812Z 05007KT M02/M11 A3015 RMK A01 T10191109  RH  051%=      5-min Rain = 0
KGU1 111813Z 08009KT M02/M11 A3015 RMK A01 T10201109  RH  051%=      5-min Rain = 0
KGU1 111814Z 08009KT M02/M11 A3015 RMK A01 T10191108  RH  051%=      5-min Rain = 0
KGU1 111815Z 08010KT M02/M11 A3015 RMK A01 T10181109  RH  051%=      5-min Rain = 0
KGU1 111816Z 06010KT M02/M11 A3015 RMK A01 T10191107  RH  051%=      5-min Rain = 0
KGU1 111817Z 07009KT M02/M11 A3015 RMK A01 T10181107  RH  051%=      5-min Rain = 0
KGU1 111818Z 08009KT M02/M11 A3015 RMK A01 T10181107  RH  051%=      5-min Rain = 0
KGU1 111819Z 07008KT M02/M11 A3015 RMK A01 T10181106  RH  052%=      5-min Rain = 0
KGU1 111820Z 07010KT M02/M11 A3015 RMK A01 T10171106  RH  051%=      5-min Rain = 0
KGU1 111821Z 06011KT M02/M11 A3015 RMK A01 T10161106  RH  051%=      5-min Rain = 0
KGU1 111822Z 06009KT M02/M11 A3015 RMK A01 T10161106  RH  051%=      5-min Rain = 0
KGU1 111823Z 07008KT M01/M10 A3015 RMK A01 T10131104  RH  050%=      5-min Rain = 0
KGU1 111824Z 09010KT M01/M10 A3015 RMK A01 T10101104  RH  049%=      5-min Rain = 0
KGU1 111825Z 07011KT M01/M10 A3015 RMK A01 T10081103  RH  049%=      5-min Rain = 0
KGU1 111826Z 06011KT M01/M11 A3015 RMK A01 T10071105  RH  048%=      5-min Rain = 0
KGU1 111827Z 07011KT M01/M10 A3015 RMK A01 T10081104  RH  049%=      5-min Rain = 0
KGU1 111828Z 06008KT M01/M11 A3015 RMK A01 T10071105  RH  048%=      5-min Rain = 0
KGU1 111829Z 07010G15KT M01/M10 A3015 RMK A01 T10091103  RH  049%=      5-min Rain = 0
KGU1 111830Z 08012KT M01/M11 A3014 RMK A01 T10071105  RH  048%=      5-min Rain = 0
KGU1 111831Z 06011KT M01/M11 A3015 RMK A01 T10081105  RH  048%=      5-min Rain = 0
KGU1 111832Z 06011KT M01/M11 A3015 RMK A01 T10091106  RH  048%=      5-min Rain = 0
KGU1 111833Z 08009KT M01/M11 A3015 RMK A01 T10091106  RH  049%=      5-min Rain = 0
KGU1 111834Z 07010KT M01/M11 A3015 RMK A01 T10111106  RH  049%=      5-min Rain = 0
KGU1 111835Z 07010KT M01/M11 A3015 RMK A01 T10111105  RH  049%=      5-min Rain = 0
KGU1 111836Z 07010KT M01/M11 A3015 RMK A01 T10101106  RH  049%=      5-min Rain = 0
KGU1 111837Z 06008KT M01/M11 A3015 RMK A01 T10101106  RH  049%=      5-min Rain = 0
KGU1 111838Z 05008KT M01/M11 A3015 RMK A01 T10101106  RH  049%=      5-min Rain = 0
KGU1 111839Z 04010G15KT M01/M11 A3015 RMK A01 T10101106  RH  048%=      5-min Rain = 0
KGU1 111840Z 07010KT M01/M11 A3015 RMK A01 T10101106  RH  048%=      5-min Rain = 0
KGU1 111841Z 07010KT M01/M11 A3014 RMK A01 T10091107  RH  048%=      5-min Rain = 0
KGU1 111842Z 08009KT M01/M11 A3015 RMK A01 T10111107  RH  049%=      5-min Rain = 0
KGU1 111843Z 08009KT M01/M11 A3015 RMK A01 T10121107  RH  049%=      5-min Rain = 0
KGU1 111844Z 08008KT M01/M11 A3014 RMK A01 T10121106  RH  049%=      5-min Rain = 0
KGU1 111845Z 07011KT M01/M11 A3014 RMK A01 T10121106  RH  049%=      5-min Rain = 0
KGU1 111846Z 05009KT M01/M11 A3014 RMK A01 T10131106  RH  050%=      5-min Rain = 0
KGU1 111847Z 04010KT M01/M11 A3015 RMK A01 T10121106  RH  049%=      5-min Rain = 0
KGU1 111848Z 04011KT M01/M11 A3014 RMK A01 T10121106  RH  049%=      5-min Rain = 0
KGU1 111849Z 05008KT M01/M11 A3014 RMK A01 T10121106  RH  049%=      5-min Rain = 0
KGU1 111850Z 05009KT M01/M11 A3015 RMK A01 T10111106  RH  049%=      5-min Rain = 0
KGU1 111851Z 05011KT M01/M11 A3015 RMK A01 T10111107  RH  049%=      5-min Rain = 0
KGU1 111852Z 06010KT M01/M11 A3015 RMK A01 T10121107  RH  049%=      5-min Rain = 0
KGU1 111853Z 06008KT M01/M11 A3014 RMK A01 T10141107  RH  050%=      5-min Rain = 0
KGU1 111854Z 06010KT M01/M11 A3014 RMK A01 T10141106  RH  050%=      5-min Rain = 0
KGU1 111855Z 07011KT M01/M11 A3014 RMK A01 T10141107  RH  050%=      5-min Rain = 0
KGU1 111856Z 06006KT M02/M11 A3014 RMK A01 T10151106  RH  050%=      5-min Rain = 0
KGU1 111857Z 06009KT M01/M11 A3014 RMK A01 T10141106  RH  050%=      5-min Rain = 0
KGU1 111858Z 07009KT M01/M11 A3014 RMK A01 T10131106  RH  050%=      5-min Rain = 0
KGU1 111859Z 05009KT M01/M11 A3014 RMK A01 T10111106  RH  049%=      5-min Rain = 0
KGU1 111900Z 06009KT M01/M11 A3014 RMK A01 T10111107  RH  049%=      5-min Rain = 0
KGU1 111901Z 07011KT M01/M11 A3014 RMK A01 T10121107  RH  049%=      5-min Rain = 0
KGU1 111902Z 06010KT M01/M11 A3015 RMK A01 T10121107  RH  049%=      5-min Rain = 0
KGU1 111903Z 07008KT M01/M11 A3014 RMK A01 T10141107  RH  050%=      5-min Rain = 0
KGU1 111904Z 07009KT M01/M11 A3014 RMK A01 T10141106  RH  050%=      5-min Rain = 0
KGU1 111905Z 07006KT M01/M11 A3014 RMK A01 T10141106  RH  050%=      5-min Rain = 0
KGU1 111906Z 06009KT M01/M11 A3014 RMK A01 T10141106  RH  050%=      5-min Rain = 0
KGU1 111907Z 06009KT M01/M11 A3014 RMK A01 T10131106  RH  050%=      5-min Rain = 0
KGU1 111908Z 06009KT M01/M11 A3014 RMK A01 T10121106  RH  050%=      5-min Rain = 0
KGU1 111909Z 06010KT M01/M11 A3014 RMK A01 T10111106  RH  049%=      5-min Rain = 0
KGU1 111910Z 05011KT M01/M11 A3014 RMK A01 T10101106  RH  049%=      5-min Rain = 0
KGU1 111911Z 06006KT M01/M11 A3014 RMK A01 T10101105  RH  049%=      5-min Rain = 0
KGU1 111912Z 05008KT M01/M10 A3014 RMK A01 T10071104  RH  048%=      5-min Rain = 0
KGU1 111913Z 05007KT M01/M11 A3014 RMK A01 T10051105  RH  047%=      5-min Rain = 0
KGU1 111914Z 06009KT M00/M11 A3014 RMK A01 T10031105  RH  047%=      5-min Rain = 0
KGU1 111915Z 05012KT M00/M11 A3014 RMK A01 T10031107  RH  046%=      5-min Rain = 0
KGU1 111916Z 04010KT M01/M11 A3014 RMK A01 T10051106  RH  047%=      5-min Rain = 0
KGU1 111917Z 03010KT M01/M11 A3014 RMK A01 T10051106  RH  047%=      5-min Rain = 0
KGU1 111918Z 03009KT M01/M11 A3013 RMK A01 T10071106  RH  048%=      5-min Rain = 0
KGU1 111919Z 05007KT M01/M11 A3013 RMK A01 T10061105  RH  048%=      5-min Rain = 0
KGU1 111920Z 06010KT M01/M11 A3013 RMK A01 T10051106  RH  047%=      5-min Rain = 0
KGU1 111921Z 05009KT M01/M11 A3013 RMK A01 T10061106  RH  047%=      5-min Rain = 0
KGU1 111922Z 03008KT M01/M11 A3013 RMK A01 T10071106  RH  048%=      5-min Rain = 0
KGU1 111923Z 04004KT M01/M11 A3013 RMK A01 T10051105  RH  048%=      5-min Rain = 0
KGU1 111924Z 07006KT M00/M11 A3013 RMK A01 T10021106  RH  046%=      5-min Rain = 0
KGU1 111925Z 06009KT M00/M11 A3013 RMK A01 T10021106  RH  046%=      5-min Rain = 0
KGU1 111926Z 06011KT M00/M11 A3013 RMK A01 T10031107  RH  046%=      5-min Rain = 0
KGU1 111927Z 07011KT M01/M11 A3013 RMK A01 T10051107  RH  047%=      5-min Rain = 0
KGU1 111928Z 08009KT M01/M11 A3013 RMK A01 T10061106  RH  047%=      5-min Rain = 0
KGU1 111929Z 07010KT M01/M11 A3013 RMK A01 T10071106  RH  048%=      5-min Rain = 0
KGU1 111930Z 05009KT M01/M11 A3013 RMK A01 T10061106  RH  048%=      5-min Rain = 0
KGU1 111931Z 04008KT M01/M11 A3013 RMK A01 T10071106  RH  047%=      5-min Rain = 0
KGU1 111932Z 04009KT M01/M11 A3013 RMK A01 T10051105  RH  047%=      5-min Rain = 0
KGU1 111933Z 05008KT M00/M11 A3013 RMK A01 T10041106  RH  046%=      5-min Rain = 0
KGU1 111934Z 06008KT M00/M11 A3013 RMK A01 T10041105  RH  047%=      5-min Rain = 0
KGU1 111935Z 08009KT M00/M11 A3012 RMK A01 T10031105  RH  046%=      5-min Rain = 0
KGU1 111936Z 07008KT M00/M11 A3012 RMK A01 T10011105  RH  046%=      5-min Rain = 0
KGU1 111937Z 08009KT M00/M11 A3012 RMK A01 T10011105  RH  046%=      5-min Rain = 0
KGU1 111938Z 06010KT 00/M11 A3012 RMK A01 T00011105  RH  045%=      5-min Rain = 0
KGU1 111939Z 06009KT 00/M11 A3012 RMK A01 T00011106  RH  045%=      5-min Rain = 0
KGU1 111940Z 05011KT 00/M11 A3012 RMK A01 T00011105  RH  045%=      5-min Rain = 0
KGU1 111941Z 05009KT 00/11 A3012 RMK A01 T00-00-106  RH  045%=      5-min Rain = 0
KGU1 111942Z 07010KT 00/11 A3012 RMK A01 T00-00-106  RH  045%=      5-min Rain = 0
KGU1 111943Z 06010KT 00/11 A3012 RMK A01 T00000-106  RH  045%=      5-min Rain = 0
KGU1 111944Z 05011KT M00/M11 A3012 RMK A01 T10011107  RH  045%=      5-min Rain = 0
KGU1 111945Z 06008KT M00/M11 A3012 RMK A01 T10031105  RH  046%=      5-min Rain = 0
KGU1 111946Z 06009KT M00/M11 A3011 RMK A01 T10021105  RH  046%=      5-min Rain = 0
KGU1 111947Z 06007KT M00/M11 A3011 RMK A01 T10011105  RH  046%=      5-min Rain = 0
KGU1 111948Z 08009G14KT 00/11 A3011 RMK A01 T00000-106  RH  045%=      5-min Rain = 0
KGU1 111949Z 08006KT 00/10 A3011 RMK A01 T00-00-104  RH  046%=      5-min Rain = 0
KGU1 111950Z 07009KT 00/M11 A3011 RMK A01 T00031105  RH  045%=      5-min Rain = 0
KGU1 111951Z 09009KT 01/M11 A3011 RMK A01 T00051105  RH  044%=      5-min Rain = 0
KGU1 111952Z 09009KT 01/M11 A3011 RMK A01 T00051105  RH  044%=      5-min Rain = 0
KGU1 111953Z 05007KT 01/M11 A3011 RMK A01 T00061105  RH  044%=      5-min Rain = 0
KGU1 111954Z 03008KT 01/M11 A3011 RMK A01 T00051107  RH  043%=      5-min Rain = 0
KGU1 111955Z 05009KT 00/M11 A3011 RMK A01 T00021106  RH  045%=      5-min Rain = 0
KGU1 111956Z 04006KT 00/M11 A3011 RMK A01 T00011106  RH  045%=      5-min Rain = 0
KGU1 111957Z 05007KT 00/11 A3011 RMK A01 T00000-106  RH  045%=      5-min Rain = 0
KGU1 111958Z 06006KT 00/11 A3011 RMK A01 T00-00-106  RH  045%=      5-min Rain = 0
KGU1 111959Z 06008KT 00/M11 A3011 RMK A01 T00011106  RH  045%=      5-min Rain = 0
KGU1 112000Z 06009KT 00/M11 A3011 RMK A01 T00021106  RH  044%=      5-min Rain = 0
KGU1 112001Z 05007KT 00/M11 A3011 RMK A01 T00041105  RH  044%=      5-min Rain = 0
KGU1 112002Z 06009KT 01/M11 A3011 RMK A01 T00051105  RH  044%=      5-min Rain = 0
KGU1 112003Z 07007KT 01/M11 A3011 RMK A01 T00061106  RH  044%=      5-min Rain = 0
KGU1 112004Z 06010KT 01/M11 A3011 RMK A01 T00061106  RH  043%=      5-min Rain = 0
KGU1 112005Z 08007KT 01/M11 A3011 RMK A01 T00051105  RH  044%=      5-min Rain = 0
KGU1 112006Z 07009KT 01/M11 A3011 RMK A01 T00051106  RH  044%=      5-min Rain = 0
KGU1 112007Z 06008KT 01/M11 A3011 RMK A01 T00051105  RH  044%=      5-min Rain = 0
KGU1 112008Z 04009KT 00/M11 A3011 RMK A01 T00031106  RH  044%=      5-min Rain = 0
KGU1 112009Z 03010KT 00/M11 A3011 RMK A01 T00021106  RH  045%=      5-min Rain = 0
KGU1 112010Z 03007KT 00/M11 A3011 RMK A01 T00011107  RH  045%=      5-min Rain = 0
KGU1 112011Z 04006KT 00/11 A3011 RMK A01 T00000-106  RH  045%=      5-min Rain = 0
KGU1 112012Z 04007KT 00/M11 A3011 RMK A01 T00011106  RH  045%=      5-min Rain = 0
KGU1 112013Z 04010KT 00/M11 A3011 RMK A01 T00021107  RH  045%=      5-min Rain = 0
KGU1 112014Z 07008KT 00/M11 A3011 RMK A01 T00031106  RH  044%=      5-min Rain = 0
KGU1 112015Z 08009KT 00/M11 A301 RMK A01 T00031106  RH  044%=      5-min Rain = 0
KGU1 112016Z 08009KT 00/M11 A301 RMK A01 T00031107  RH  044%=      5-min Rain = 0
KGU1 112017Z 06008KT 00/M11 A301 RMK A01 T00021106  RH  045%=      5-min Rain = 0
KGU1 112018Z 07009KT 00/M11 A301 RMK A01 T00021106  RH  045%=      5-min Rain = 0
KGU1 112019Z 07010KT 00/M11 A301 RMK A01 T00011106  RH  045%=      5-min Rain = 0
KGU1 112020Z 06008KT 00/M11 A301 RMK A01 T00021106  RH  045%=      5-min Rain = 0
KGU1 112021Z 06007KT 00/M11 A301 RMK A01 T00021106  RH  045%=      5-min Rain = 0
KGU1 112022Z 07009KT 00/M11 A301 RMK A01 T00021107  RH  045%=      5-min Rain = 0
KGU1 112023Z 07009KT 00/M11 A301 RMK A01 T00021106  RH  045%=      5-min Rain = 0
KGU1 112024Z 07007KT 00/M11 A301 RMK A01 T00021107  RH  044%=      5-min Rain = 0
KGU1 112025Z 07007KT 00/M11 A301 RMK A01 T00011106  RH  045%=      5-min Rain = 0
KGU1 112026Z 06008KT 00/M11 A301 RMK A01 T00021106  RH  045%=      5-min Rain = 0
KGU1 112027Z 06007KT 00/M11 A301 RMK A01 T00041106  RH  044%=      5-min Rain = 0
KGU1 112028Z 05008KT 00/M11 A301 RMK A01 T00031107  RH  044%=      5-min Rain = 0
KGU1 112029Z 05004KT 00/M11 A301 RMK A01 T00021106  RH  045%=      5-min Rain = 0
KGU1 112030Z 09007KT 00/M11 A301 RMK A01 T00031106  RH  045%=      5-min Rain = 0
KGU1 112031Z 09007KT 01/M11 A301 RMK A01 T00051106  RH  044%=      5-min Rain = 0
KGU1 112032Z 08007KT 01/M11 A301 RMK A01 T00051105  RH  044%=      5-min Rain = 0
KGU1 112033Z 06007KT 01/M11 A301 RMK A01 T00061106  RH  043%=      5-min Rain = 0
KGU1 112034Z 07009KT 01/M11 A301 RMK A01 T00061106  RH  044%=      5-min Rain = 0
KGU1 112035Z 07008KT 01/M11 A301 RMK A01 T00061106  RH  043%=      5-min Rain = 0
KGU1 112036Z 07007KT 01/M11 A301 RMK A01 T00051106  RH  044%=      5-min Rain = 0
KGU1 112037Z 08009KT 01/M11 A301 RMK A01 T00051106  RH  044%=      5-min Rain = 0
KGU1 112038Z 07007KT 00/M11 A301 RMK A01 T00041106  RH  044%=      5-min Rain = 0
KGU1 112039Z 08007KT 00/M11 A301 RMK A01 T00041106  RH  044%=      5-min Rain = 0
KGU1 112040Z 08009KT 00/M11 A301 RMK A01 T00031106  RH  044%=      5-min Rain = 0
KGU1 112041Z 06007KT 00/M11 A301 RMK A01 T00041106  RH  044%=      5-min Rain = 0
KGU1 112042Z 07007KT 01/M11 A301 RMK A01 T00051106  RH  044%=      5-min Rain = 0
KGU1 112043Z 08006KT 01/M11 A301 RMK A01 T00051106  RH  044%=      5-min Rain = 0
KGU1 112044Z 08006KT 00/M11 A301 RMK A01 T00041105  RH  044%=      5-min Rain = 0
KGU1 112045Z 08006KT 00/M11 A301 RMK A01 T00041106  RH  044%=      5-min Rain = 0
KGU1 112046Z 06009KT 00/M11 A301 RMK A01 T00041106  RH  044%=      5-min Rain = 0
KGU1 112047Z 07006KT 00/M11 A301 RMK A01 T00031106  RH  044%=      5-min Rain = 0
KGU1 112048Z 08007KT 01/M11 A301 RMK A01 T00051106  RH  044%=      5-min Rain = 0
KGU1 112049Z 07008KT 01/M11 A301 RMK A01 T00051106  RH  044%=      5-min Rain = 0
KGU1 112050Z 05009KT 01/M11 A301 RMK A01 T00051106  RH  043%=      5-min Rain = 0
KGU1 112051Z 05008KT 01/M11 A301 RMK A01 T00051106  RH  044%=      5-min Rain = 0
KGU1 112052Z 05005KT 01/M11 A301 RMK A01 T00051105  RH  044%=      5-min Rain = 0
KGU1 112053Z 06006KT 01/M11 A301 RMK A01 T00071106  RH  043%=      5-min Rain = 0
KGU1 112054Z 08007KT 01/M11 A3009 RMK A01 T00081106  RH  043%=      5-min Rain = 0
KGU1 112055Z 09007KT 01/M11 A3009 RMK A01 T00081106  RH  043%=      5-min Rain = 0
KGU1 112056Z 07007KT 01/M11 A3009 RMK A01 T00081106  RH  043%=      5-min Rain = 0
KGU1 112057Z 06007KT 01/M11 A3009 RMK A01 T00101106  RH  042%=      5-min Rain = 0
KGU1 112058Z 07008KT 01/M11 A3009 RMK A01 T00101106  RH  042%=      5-min Rain = 0
KGU1 112059Z 08007KT 01/M11 A3009 RMK A01 T00091106  RH  043%=      5-min Rain = 0
KGU1 112100Z 07008KT 01/M11 A3009 RMK A01 T00091106  RH  043%=      5-min Rain = 0
KGU1 112101Z 08008KT 01/M11 A3009 RMK A01 T00081106  RH  042%=      5-min Rain = 0
KGU1 112102Z 08007KT 01/M11 A3009 RMK A01 T00081105  RH  043%=      5-min Rain = 0
KGU1 112103Z 08007KT 01/M11 A3009 RMK A01 T00101106  RH  042%=      5-min Rain = 0
KGU1 112104Z 09007KT 01/M11 A3009 RMK A01 T00111105  RH  042%=      5-min Rain = 0
KGU1 112105Z 09006KT 01/M11 A3009 RMK A01 T00111106  RH  042%=      5-min Rain = 0
KGU1 112106Z 09009KT 01/M11 A3009 RMK A01 T00121105  RH  042%=      5-min Rain = 0
KGU1 112107Z 08006KT 01/M11 A3009 RMK A01 T00141105  RH  041%=      5-min Rain = 0
KGU1 112108Z 09006KT 01/M11 A3009 RMK A01 T00141107  RH  041%=      5-min Rain = 0
KGU1 112109Z 08007KT 01/M11 A3009 RMK A01 T00131106  RH  041%=      5-min Rain = 0
KGU1 112110Z 06008KT 01/M11 A301 RMK A01 T00121106  RH  041%=      5-min Rain = 0
KGU1 112111Z 05008KT 01/M11 A301 RMK A01 T00111106  RH  042%=      5-min Rain = 0
KGU1 112112Z 04008KT 01/M11 A301 RMK A01 T00101107  RH  042%=      5-min Rain = 0
KGU1 112113Z 05008KT 01/M11 A301 RMK A01 T00091107  RH  042%=      5-min Rain = 0
KGU1 112114Z 08007KT 01/M11 A301 RMK A01 T00081106  RH  043%=      5-min Rain = 0
KGU1 112115Z 06009KT 01/M11 A301 RMK A01 T00081107  RH  042%=      5-min Rain = 0
KGU1 112116Z 07008KT 01/M11 A301 RMK A01 T00071107  RH  043%=      5-min Rain = 0
KGU1 112117Z 07007KT 01/M11 A301 RMK A01 T00061107  RH  043%=      5-min Rain = 0
KGU1 112118Z 09008KT 01/M11 A301 RMK A01 T00061107  RH  043%=      5-min Rain = 0
KGU1 112119Z 08007KT 00/M11 A301 RMK A01 T00041106  RH  044%=      5-min Rain = 0
KGU1 112120Z 07008KT 00/M11 A301 RMK A01 T00041106  RH  044%=      5-min Rain = 0
KGU1 112121Z 05006KT 01/M11 A301 RMK A01 T00051106  RH  044%=      5-min Rain = 0
KGU1 112122Z 05006KT 01/M11 A301 RMK A01 T00061106  RH  043%=      5-min Rain = 0
KGU1 112123Z 06006KT 01/M11 A301 RMK A01 T00071106  RH  043%=      5-min Rain = 0
KGU1 112124Z 06007KT 01/M11 A301 RMK A01 T00071107  RH  043%=      5-min Rain = 0
KGU1 112125Z 06009KT 01/M11 A301 RMK A01 T00071106  RH  043%=      5-min Rain = 0
KGU1 112126Z 06009KT 01/M11 A301 RMK A01 T00061106  RH  043%=      5-min Rain = 0
KGU1 112127Z 07010KT 01/M11 A301 RMK A01 T00061106  RH  043%=      5-min Rain = 0
KGU1 112128Z 07007KT 01/M11 A301 RMK A01 T00051106  RH  044%=      5-min Rain = 0
KGU1 112129Z 08008KT 01/M11 A301 RMK A01 T00051106  RH  044%=      5-min Rain = 0
KGU1 112130Z 08008KT 01/M11 A301 RMK A01 T00061106  RH  043%=      5-min Rain = 0
KGU1 112131Z 08006KT 01/M11 A301 RMK A01 T00061106  RH  043%=      5-min Rain = 0
KGU1 112132Z 07007KT 01/M11 A301 RMK A01 T00061106  RH  043%=      5-min Rain = 0
KGU1 112133Z 06008KT 01/M11 A301 RMK A01 T00061106  RH  043%=      5-min Rain = 0
KGU1 112134Z 05006KT 01/M11 A301 RMK A01 T00071106  RH  043%=      5-min Rain = 0
KGU1 112135Z 06006KT 01/M11 A301 RMK A01 T00071105  RH  043%=      5-min Rain = 0
KGU1 112136Z 07007KT 01/M11 A301 RMK A01 T00091106  RH  043%=      5-min Rain = 0
KGU1 112137Z 09006KT 01/M11 A301 RMK A01 T00101106  RH  042%=      5-min Rain = 0
KGU1 112138Z 07008KT 01/M11 A301 RMK A01 T00101106  RH  042%=      5-min Rain = 0
KGU1 112139Z 08008KT 01/M11 A301 RMK A01 T00101106  RH  042%=      5-min Rain = 0
KGU1 112140Z 07007KT 01/M11 A301 RMK A01 T00101105  RH  042%=      5-min Rain = 0
KGU1 112141Z 06007KT 01/M11 A301 RMK A01 T00101105  RH  042%=      5-min Rain = 0
KGU1 112142Z 05006KT 01/M11 A301 RMK A01 T00091105  RH  043%=      5-min Rain = 0
KGU1 112143Z 05007KT 01/M11 A301 RMK A01 T00111105  RH  042%=      5-min Rain = 0
KGU1 112144Z 07006KT 01/M11 A301 RMK A01 T00111105  RH  042%=      5-min Rain = 0
KGU1 112145Z 07006KT 01/M10 A301 RMK A01 T00131103  RH  042%=      5-min Rain = 0
KGU1 112146Z 09006KT 02/M11 A301 RMK A01 T00161106  RH  041%=      5-min Rain = 0
KGU1 112147Z 06007KT 02/M11 A301 RMK A01 T00151105  RH  041%=      5-min Rain = 0
KGU1 112148Z 05005KT 02/M11 A301 RMK A01 T00151106  RH  041%=      5-min Rain = 0
KGU1 112149Z 05005KT 02/M11 A301 RMK A01 T00151106  RH  041%=      5-min Rain = 0
KGU1 112150Z 08007KT 02/M11 A301 RMK A01 T00151106  RH  041%=      5-min Rain = 0
KGU1 112151Z 07009KT 02/M11 A3009 RMK A01 T00151106  RH  041%=      5-min Rain = 0
KGU1 112152Z 09006KT 01/M11 A3009 RMK A01 T00141105  RH  041%=      5-min Rain = 0
KGU1 112153Z 08008KT 02/M10 A3009 RMK A01 T00151104  RH  041%=      5-min Rain = 0
KGU1 112154Z 06009KT 02/M11 A3009 RMK A01 T00151105  RH  041%=      5-min Rain = 0
KGU1 112155Z 06006KT 02/M11 A3009 RMK A01 T00151106  RH  041%=      5-min Rain = 0
KGU1 112156Z 06006KT 02/M11 A3009 RMK A01 T00151105  RH  041%=      5-min Rain = 0
KGU1 112157Z 07005KT 02/M11 A3009 RMK A01 T00151105  RH  041%=      5-min Rain = 0
KGU1 112158Z 04006KT 02/M11 A3009 RMK A01 T00161105  RH  041%=      5-min Rain = 0
KGU1 112159Z 05007KT 02/M10 A3009 RMK A01 T00181104  RH  040%=      5-min Rain = 0
KGU1 112200Z 07004KT 02/M11 A3009 RMK A01 T00201106  RH  039%=      5-min Rain = 0
KGU1 112201Z 06007KT 02/M11 A3009 RMK A01 T00201105  RH  040%=      5-min Rain = 0
KGU1 112202Z 06007KT 02/M11 A3009 RMK A01 T00201106  RH  039%=      5-min Rain = 0
KGU1 112203Z 07007KT 02/M11 A301 RMK A01 T00191106  RH  040%=      5-min Rain = 0
KGU1 112204Z 08007KT 02/M11 A301 RMK A01 T00181106  RH  040%=      5-min Rain = 0
KGU1 112205Z 08005KT 02/M11 A301 RMK A01 T00181106  RH  040%=      5-min Rain = 0
KGU1 112206Z 07008KT 02/M11 A301 RMK A01 T00181105  RH  040%=      5-min Rain = 0
KGU1 112207Z 07008KT 02/M11 A301 RMK A01 T00181105  RH  040%=      5-min Rain = 0
KGU1 112208Z 08007KT 02/M11 A301 RMK A01 T00171105  RH  040%=      5-min Rain = 0
KGU1 112209Z 07007KT 02/M11 A301 RMK A01 T00161105  RH  041%=      5-min Rain = 0
KGU1 112210Z 07007KT 02/M10 A301 RMK A01 T00161104  RH  041%=      5-min Rain = 0
KGU1 112211Z 07008KT 02/M10 A301 RMK A01 T00181104  RH  040%=      5-min Rain = 0
KGU1 112212Z 08007KT 02/M11 A301 RMK A01 T00191105  RH  040%=      5-min Rain = 0
KGU1 112213Z 08006KT 02/M11 A301 RMK A01 T00181105  RH  040%=      5-min Rain = 0
KGU1 112214Z 06006KT 02/M11 A301 RMK A01 T00181105  RH  040%=      5-min Rain = 0
KGU1 112215Z 08008KT 02/M11 A301 RMK A01 T00181105  RH  040%=      5-min Rain = 0
KGU1 112216Z 08008KT 02/M11 A301 RMK A01 T00171105  RH  040%=      5-min Rain = 0
KGU1 112217Z 09007KT 02/M11 A301 RMK A01 T00161105  RH  041%=      5-min Rain = 0
KGU1 112218Z 09008KT 02/M11 A301 RMK A01 T00171105  RH  040%=      5-min Rain = 0
KGU1 112219Z 07009KT 02/M11 A301 RMK A01 T00161105  RH  041%=      5-min Rain = 0
KGU1 112220Z 08008KT 02/M11 A301 RMK A01 T00161105  RH  041%=      5-min Rain = 0
KGU1 112221Z 08007KT 02/M10 A301 RMK A01 T00151104  RH  041%=      5-min Rain = 0
KGU1 112222Z 08006KT 02/M10 A3009 RMK A01 T00161104  RH  041%=      5-min Rain = 0
KGU1 112223Z 10007KT 02/M10 A3009 RMK A01 T00161104  RH  041%=      5-min Rain = 0
KGU1 112224Z 08006G12KT 02/M10 A3009 RMK A01 T00171104  RH  041%=      5-min Rain = 0
KGU1 112225Z 07009KT 02/M11 A3009 RMK A01 T00171105  RH  041%=      5-min Rain = 0
KGU1 112226Z 06005KT 02/M10 A3009 RMK A01 T00151104  RH  041%=      5-min Rain = 0
KGU1 112227Z 05007KT 02/M10 A3009 RMK A01 T00151104  RH  041%=      5-min Rain = 0
KGU1 112228Z 06007KT 02/M10 A3009 RMK A01 T00161104  RH  041%=      5-min Rain = 0
KGU1 112229Z 08007KT 02/M10 A3009 RMK A01 T00151104  RH  041%=      5-min Rain = 0
KGU1 112230Z 06006KT 02/M10 A3009 RMK A01 T00151104  RH  042%=      5-min Rain = 0
KGU1 112231Z 06007KT 01/M10 A3009 RMK A01 T00141104  RH  042%=      5-min Rain = 0
KGU1 112232Z 06007KT 01/M10 A3009 RMK A01 T00141104  RH  042%=      5-min Rain = 0
KGU1 112233Z 05006KT 01/M10 A3009 RMK A01 T00131104  RH  042%=      5-min Rain = 0
KGU1 112234Z 06005KT 01/M10 A3009 RMK A01 T00131103  RH  042%=      5-min Rain = 0
KGU1 112235Z 07008KT 01/M10 A3009 RMK A01 T00131104  RH  042%=      5-min Rain = 0
KGU1 112236Z 07007KT 01/M10 A3009 RMK A01 T00131103  RH  042%=      5-min Rain = 0
KGU1 112237Z 06007KT 01/M10 A3009 RMK A01 T00131102  RH  043%=      5-min Rain = 0
KGU1 112238Z 06008KT 01/M10 A3009 RMK A01 T00131104  RH  042%=      5-min Rain = 0
KGU1 112239Z 06006KT 01/M10 A3009 RMK A01 T00141104  RH  042%=      5-min Rain = 0
KGU1 112240Z 06008KT 01/M10 A3009 RMK A01 T00141104  RH  042%=      5-min Rain = 0
KGU1 112241Z 07007KT 01/M10 A3009 RMK A01 T00141103  RH  042%=      5-min Rain = 0
KGU1 112242Z 07008KT 01/M10 A3009 RMK A01 T00141103  RH  042%=      5-min Rain = 0
KGU1 112243Z 06008KT 01/M10 A3009 RMK A01 T00141103  RH  042%=      5-min Rain = 0
KGU1 112244Z 05008KT 01/M10 A301 RMK A01 T00131103  RH  042%=      5-min Rain = 0
KGU1 112245Z 05007KT 01/M10 A301 RMK A01 T00131103  RH  042%=      5-min Rain = 0
KGU1 112246Z 06004KT 01/M10 A301 RMK A01 T00141102  RH  042%=      5-min Rain = 0
KGU1 112247Z 06006KT 02/M10 A301 RMK A01 T00151103  RH  042%=      5-min Rain = 0
KGU1 112248Z 06006KT 02/M10 A301 RMK A01 T00161102  RH  042%=      5-min Rain = 0
KGU1 112249Z 07005KT 02/M10 A301 RMK A01 T00161102  RH  042%=      5-min Rain = 0
KGU1 112250Z 08005KT 02/M10 A301 RMK A01 T00171101  RH  042%=      5-min Rain = 0
KGU1 112251Z 08005KT 02/M10 A301 RMK A01 T00191101  RH  041%=      5-min Rain = 0
KGU1 112252Z 09007KT 02/M10 A301 RMK A01 T00201102  RH  041%=      5-min Rain = 0
KGU1 112253Z 08006KT 02/M10 A301 RMK A01 T00191100  RH  041%=      5-min Rain = 0
KGU1 112254Z 07007KT 02/M10 A301 RMK A01 T00191101  RH  041%=      5-min Rain = 0
KGU1 112255Z 07007KT 02/M10 A301 RMK A01 T00201102  RH  041%=      5-min Rain = 0
KGU1 112256Z 07007KT 02/M10 A301 RMK A01 T00211101  RH  040%=      5-min Rain = 0
KGU1 112257Z 08006KT 02/M10 A3009 RMK A01 T00221100  RH  040%=      5-min Rain = 0
KGU1 112258Z 04006KT 02/M10 A301 RMK A01 T00231101  RH  040%=      5-min Rain = 0
KGU1 112259Z 06006KT 03/M10 A301 RMK A01 T00251100  RH  040%=      5-min Rain = 0
KGU1 112300Z 06007KT 03/M10 A301 RMK A01 T00261101  RH  039%=      5-min Rain = 0
KGU1 112301Z 07005KT 03/M10 A301 RMK A01 T00251100  RH  040%=      5-min Rain = 0
KGU1 112302Z 06008KT 03/M10 A301 RMK A01 T00261101  RH  039%=      5-min Rain = 0
KGU1 112303Z 05007KT 03/M10 A301 RMK A01 T00251101  RH  039%=      5-min Rain = 0
KGU1 112304Z 08005KT 02/M10 A301 RMK A01 T00241101  RH  040%=      5-min Rain = 0
KGU1 112305Z 07007KT 02/M10 A301 RMK A01 T00231101  RH  040%=      5-min Rain = 0
KGU1 112306Z 07008KT 02/M10 A301 RMK A01 T00221102  RH  040%=      5-min Rain = 0
KGU1 112307Z 06006KT 02/M10 A301 RMK A01 T00221103  RH  040%=      5-min Rain = 0
KGU1 112308Z 05007KT 02/M10 A301 RMK A01 T00211104  RH  040%=      5-min Rain = 0
KGU1 112309Z 04005KT 02/M10 A301 RMK A01 T00211103  RH  040%=      5-min Rain = 0
KGU1 112310Z 06006KT 02/M10 A301 RMK A01 T00221102  RH  040%=      5-min Rain = 0
KGU1 112311Z 07008KT 02/M10 A301 RMK A01 T00231102  RH  040%=      5-min Rain = 0
KGU1 112312Z 07007KT 02/M10 A301 RMK A01 T00211102  RH  040%=      5-min Rain = 0
KGU1 112313Z 07007KT 02/M10 A301 RMK A01 T00211101  RH  041%=      5-min Rain = 0
KGU1 112314Z 07006KT 02/M10 A301 RMK A01 T00201101  RH  041%=      5-min Rain = 0
KGU1 112315Z 06006KT 02/M10 A301 RMK A01 T00201101  RH  041%=      5-min Rain = 0
KGU1 112316Z 05007KT 02/M10 A301 RMK A01 T00211102  RH  040%=      5-min Rain = 0
KGU1 112317Z 04006KT 02/M10 A301 RMK A01 T00231102  RH  040%=      5-min Rain = 0
KGU1 112318Z 05008KT 03/M10 A301 RMK A01 T00251103  RH  039%=      5-min Rain = 0
KGU1 112319Z 07006KT 03/M10 A301 RMK A01 T00251101  RH  039%=      5-min Rain = 0
KGU1 112320Z 08008KT 03/M10 A301 RMK A01 T00251101  RH  039%=      5-min Rain = 0
KGU1 112321Z 05006KT 03/M10 A301 RMK A01 T00261101  RH  039%=      5-min Rain = 0
KGU1 112322Z 06005KT 03/M10 A301 RMK A01 T00271101  RH  039%=      5-min Rain = 0
KGU1 112323Z 05005KT 03/M10 A301 RMK A01 T00281102  RH  038%=      5-min Rain = 0
KGU1 112324Z 05007KT 03/M10 A301 RMK A01 T00291102  RH  038%=      5-min Rain = 0
KGU1 112325Z 06006KT 03/M10 A301 RMK A01 T00291102  RH  038%=      5-min Rain = 0
KGU1 112326Z 04008KT 03/M10 A301 RMK A01 T00281102  RH  038%=      5-min Rain = 0
KGU1 112327Z 06007KT 03/M10 A301 RMK A01 T00271102  RH  039%=      5-min Rain = 0
KGU1 112328Z 07008KT 03/M10 A301 RMK A01 T00261102  RH  039%=      5-min Rain = 0
KGU1 112329Z 07005KT 03/M10 A301 RMK A01 T00251101  RH  039%=      5-min Rain = 0
KGU1 112330Z 06007KT 03/M10 A301 RMK A01 T00251102  RH  039%=      5-min Rain = 0
KGU1 112331Z 07007KT 02/M10 A301 RMK A01 T00241102  RH  039%=      5-min Rain = 0
KGU1 112332Z 08007KT 02/M10 A301 RMK A01 T00221101  RH  040%=      5-min Rain = 0
KGU1 112333Z 08005KT 02/M10 A301 RMK A01 T00221101  RH  040%=      5-min Rain = 0
KGU1 112334Z 06007KT 02/M10 A301 RMK A01 T00221102  RH  040%=      5-min Rain = 0
KGU1 112335Z 05007KT 02/M10 A301 RMK A01 T00211102  RH  040%=      5-min Rain = 0
KGU1 112336Z 06006KT 02/M10 A301 RMK A01 T00201102  RH  040%=      5-min Rain = 0
KGU1 112337Z 07008KT 02/M10 A301 RMK A01 T00201102  RH  040%=      5-min Rain = 0
KGU1 112338Z 07006KT 02/M10 A301 RMK A01 T00191102  RH  041%=      5-min Rain = 0
KGU1 112339Z 06006KT 02/M10 A301 RMK A01 T00181102  RH  041%=      5-min Rain = 0
KGU1 112340Z 06007KT 02/M10 A301 RMK A01 T00171102  RH  041%=      5-min Rain = 0
KGU1 112341Z 06005KT 02/M10 A301 RMK A01 T00171102  RH  042%=      5-min Rain = 0
KGU1 112342Z 07006KT 02/M10 A301 RMK A01 T00161102  RH  042%=      5-min Rain = 0
KGU1 112343Z 08006KT 02/M10 A301 RMK A01 T00151101  RH  042%=      5-min Rain = 0
KGU1 112344Z 07007KT 02/M10 A301 RMK A01 T00151102  RH  042%=      5-min Rain = 0
KGU1 112345Z 05007KT 02/M10 A301 RMK A01 T00151102  RH  042%=      5-min Rain = 0
KGU1 112346Z 04006KT 02/M10 A301 RMK A01 T00151101  RH  042%=      5-min Rain = 0
KGU1 112347Z 06006KT 01/M10 A301 RMK A01 T00141101  RH  042%=      5-min Rain = 0
KGU1 112348Z 06005KT 01/M10 A301 RMK A01 T00141101  RH  042%=      5-min Rain = 0
KGU1 112349Z 05005KT 01/M10 A301 RMK A01 T00141101  RH  042%=      5-min Rain = 0
KGU1 112350Z 06006KT 01/M10 A301 RMK A01 T00141101  RH  042%=      5-min Rain = 0
KGU1 112351Z 07007KT 01/M10 A301 RMK A01 T00141101  RH  043%=      5-min Rain = 0
KGU1 112352Z 06007KT 01/M10 A301 RMK A01 T00141101  RH  043%=      5-min Rain = 0
KGU1 112353Z 05007KT 01/M10 A301 RMK A01 T00141100  RH  043%=      5-min Rain = 0
KGU1 112354Z 06005KT 02/M10 A301 RMK A01 T00151100  RH  043%=      5-min Rain = 0
KGU1 112355Z 06008KT 02/M10 A301 RMK A01 T00161100  RH  042%=      5-min Rain = 0
KGU1 112356Z 06007KT 02/M10 A301 RMK A01 T00161100  RH  042%=      5-min Rain = 0
KGU1 112357Z 06006KT 02/M10 A301 RMK A01 T00171100  RH  042%=      5-min Rain = 0
KGU1 112358Z 05008KT 02/M10 A301 RMK A01 T00181100  RH  042%=      5-min Rain = 0
KGU1 112359Z 06006KT 02/M10 A301 RMK A01 T00181100  RH  042%=      5-min Rain = 0
KGU1 120000Z 07008KT 02/M10 A301 RMK A01 T00181100  RH  042%=      5-min Rain = 0
KGU1 120001Z 07007KT 02/M10 A301 RMK A01 T00181100  RH  042%=      5-min Rain = 0
KGU1 120002Z 07006KT 02/M10 A301 RMK A01 T00171100  RH  042%=      5-min Rain = 0
KGU1 120003Z 07005KT 02/M10 A301 RMK A01 T00181100  RH  042%=      5-min Rain = 0
KGU1 120004Z 06007KT 02/M10 A301 RMK A01 T00181100  RH  042%=      5-min Rain = 0
KGU1 120005Z 06006KT 02/M10 A301 RMK A01 T00171100  RH  042%=      5-min Rain = 0
KGU1 120006Z 06007KT 02/M10 A301 RMK A01 T00171100  RH  042%=      5-min Rain = 0
KGU1 120007Z 06008KT 02/M10 A301 RMK A01 T00161100  RH  042%=      5-min Rain = 0
KGU1 120008Z 06006KT 02/M10 A301 RMK A01 T00151100  RH  043%=      5-min Rain = 0
KGU1 120009Z 07005KT 01/M10 A3011 RMK A01 T00141100  RH  043%=      5-min Rain = 0
KGU1 120010Z 06006KT 01/M10 A3011 RMK A01 T00141100  RH  043%=      5-min Rain = 0
KGU1 120011Z 06006KT 01/M10 A3011 RMK A01 T00131100  RH  043%=      5-min Rain = 0
KGU1 120012Z 06008KT 01/M10 A3011 RMK A01 T00131100  RH  043%=      5-min Rain = 0
KGU1 120013Z 06006KT 01/M10 A3011 RMK A01 T00131099  RH  044%=      5-min Rain = 0
KGU1 120014Z 07005KT 01/M10 A3011 RMK A01 T00121100  RH  044%=      5-min Rain = 0
KGU1 120015Z 07006KT 01/M10 A3011 RMK A01 T00121100  RH  044%=      5-min Rain = 0
KGU1 120016Z 06008KT 01/M10 A3011 RMK A01 T00111099  RH  044%=      5-min Rain = 0
KGU1 120017Z 05005KT 01/M10 A3011 RMK A01 T00111099  RH  044%=      5-min Rain = 0
KGU1 120018Z 07006KT 01/M10 A3011 RMK A01 T00111099  RH  044%=      5-min Rain = 0
KGU1 120019Z 07005KT 01/M10 A3011 RMK A01 T00101099  RH  044%=      5-min Rain = 0
KGU1 120020Z 07005KT 01/M10 A3011 RMK A01 T00101099  RH  045%=      5-min Rain = 0
KGU1 120021Z 07005KT 01/M10 A3011 RMK A01 T00091098  RH  045%=      5-min Rain = 0
KGU1 120022Z 07006KT 01/M10 A3011 RMK A01 T00091098  RH  045%=      5-min Rain = 0
KGU1 120023Z 07005KT 01/M10 A3011 RMK A01 T00081098  RH  045%=      5-min Rain = 0
KGU1 120024Z 07005KT 01/M10 A3011 RMK A01 T00081098  RH  045%=      5-min Rain = 0
KGU1 120025Z 06005KT 01/M10 A3011 RMK A01 T00071098  RH  046%=      5-min Rain = 0
KGU1 120026Z 06005KT 01/M10 A3011 RMK A01 T00071098  RH  046%=      5-min Rain = 0
KGU1 120027Z 07006KT 01/M10 A3011 RMK A01 T00071098  RH  046%=      5-min Rain = 0
KGU1 120028Z 07005KT 01/M10 A3011 RMK A01 T00061098  RH  046%=      5-min Rain = 0
KGU1 120029Z 06005KT 01/M10 A3011 RMK A01 T00061098  RH  046%=      5-min Rain = 0
KGU1 120030Z 06004KT 01/M10 A3011 RMK A01 T00061099  RH  046%=      5-min Rain = 0
KGU1 120031Z 06006KT 01/M10 A3011 RMK A01 T00051098  RH  046%=      5-min Rain = 0
KGU1 120032Z 06007KT 01/M10 A3011 RMK A01 T00051098  RH  046%=      5-min Rain = 0
KGU1 120033Z 06006KT 01/M10 A3011 RMK A01 T00051098  RH  047%=      5-min Rain = 0
KGU1 120034Z 06006KT 00/M10 A3011 RMK A01 T00041098  RH  047%=      5-min Rain = 0
KGU1 120035Z 06005KT 00/M10 A3011 RMK A01 T00041098  RH  047%=      5-min Rain = 0
KGU1 120036Z 06004KT 00/M10 A3011 RMK A01 T00031099  RH  047%=      5-min Rain = 0
KGU1 120037Z 05004KT 00/M10 A3011 RMK A01 T00031099  RH  047%=      5-min Rain = 0
KGU1 120038Z 06004KT 00/M10 A3011 RMK A01 T00031099  RH  047%=      5-min Rain = 0
KGU1 120039Z 06005KT 00/M10 A3011 RMK A01 T00021099  RH  047%=      5-min Rain = 0
KGU1 120040Z 06005KT 00/M10 A3011 RMK A01 T00011098  RH  048%=      5-min Rain = 0
KGU1 120041Z 05004KT 00/M10 A3011 RMK A01 T00011099  RH  048%=      5-min Rain = 0
KGU1 120042Z 06005KT 00/10 A3011 RMK A01 T00000-99  RH  048%=      5-min Rain = 0
KGU1 120043Z 07004KT 00/10 A3011 RMK A01 T00-00-98  RH  048%=      5-min Rain = 0
KGU1 120044Z 06004KT 00/10 A3011 RMK A01 T00-00-98  RH  048%=      5-min Rain = 0
KGU1 120045Z 06004KT M00/M10 A3012 RMK A01 T10011099  RH  048%=      5-min Rain = 0
KGU1 120046Z 06004KT M00/M10 A3012 RMK A01 T10011098  RH  049%=      5-min Rain = 0
KGU1 120047Z 06004KT M00/M10 A3012 RMK A01 T10011098  RH  049%=      5-min Rain = 0
KGU1 120048Z 06005KT M00/M10 A3012 RMK A01 T10011099  RH  049%=      5-min Rain = 0
KGU1 120049Z 05005KT M00/M10 A3012 RMK A01 T10021099  RH  049%=      5-min Rain = 0
KGU1 120050Z 05004KT M00/M10 A3012 RMK A01 T10031099  RH  049%=      5-min Rain = 0
KGU1 120051Z 05005KT M00/M10 A3012 RMK A01 T10031098  RH  049%=      5-min Rain = 0
KGU1 120052Z 05005KT M00/M10 A3012 RMK A01 T10041098  RH  049%=      5-min Rain = 0
KGU1 120053Z 05006KT M00/M10 A3012 RMK A01 T10041098  RH  050%=      5-min Rain = 0
KGU1 120054Z 04005KT M00/M10 A3012 RMK A01 T10041098  RH  050%=      5-min Rain = 0
KGU1 120055Z 03003KT M01/M10 A3012 RMK A01 T10051098  RH  050%=      5-min Rain = 0
KGU1 120056Z 04003KT M01/M10 A3012 RMK A01 T10051099  RH  050%=      5-min Rain = 0
KGU1 120057Z 05005KT M01/M10 A3012 RMK A01 T10051099  RH  050%=      5-min Rain = 0
KGU1 120058Z 04005KT M01/M10 A3012 RMK A01 T10061099  RH  050%=      5-min Rain = 0
KGU1 120059Z 04004KT M01/M10 A3012 RMK A01 T10071099  RH  050%=      5-min Rain = 0
KGU1 120100Z 04004KT M01/M10 A3012 RMK A01 T10071099  RH  051%=      5-min Rain = 0
KGU1 120101Z 05005KT M01/M10 A3012 RMK A01 T10081099  RH  051%=      5-min Rain = 0
KGU1 120102Z 04005KT M01/M10 A3012 RMK A01 T10081099  RH  051%=      5-min Rain = 0
KGU1 120103Z 02004KT M01/M10 A3012 RMK A01 T10081099  RH  051%=      5-min Rain = 0
KGU1 120104Z 03004KT M01/M10 A3012 RMK A01 T10091099  RH  051%=      5-min Rain = 0
KGU1 120105Z 03004KT M01/M10 A3012 RMK A01 T10091099  RH  051%=      5-min Rain = 0
KGU1 120106Z 03005KT M01/M10 A3012 RMK A01 T10091099  RH  051%=      5-min Rain = 0
KGU1 120107Z 04005KT M01/M10 A3012 RMK A01 T10101099  RH  051%=      5-min Rain = 0
KGU1 120108Z 04005KT M01/M10 A3012 RMK A01 T10101099  RH  052%=      5-min Rain = 0
KGU1 120109Z 04004KT M01/M10 A3012 RMK A01 T10101099  RH  052%=      5-min Rain = 0
KGU1 120110Z 02004KT M01/M10 A3012 RMK A01 T10111099  RH  052%=      5-min Rain = 0
KGU1 120111Z 02004KT M01/M10 A3012 RMK A01 T10111099  RH  052%=      5-min Rain = 0
KGU1 120112Z 03005KT M01/M10 A3012 RMK A01 T10111099  RH  052%=      5-min Rain = 0
KGU1 120113Z 03005KT M01/M10 A3012 RMK A01 T10111099  RH  052%=      5-min Rain = 0
KGU1 120114Z 03004KT M01/M10 A3012 RMK A01 T10111099  RH  052%=      5-min Rain = 0
KGU1 120115Z 03004KT M01/M10 A3012 RMK A01 T10121099  RH  052%=      5-min Rain = 0
KGU1 120116Z 03005KT M01/M10 A3012 RMK A01 T10121099  RH  052%=      5-min Rain = 0
KGU1 120117Z 04004KT M01/M10 A3012 RMK A01 T10121099  RH  052%=      5-min Rain = 0
KGU1 120118Z 04005KT M01/M10 A3012 RMK A01 T10121099  RH  052%=      5-min Rain = 0
KGU1 120119Z 04005KT M01/M10 A3012 RMK A01 T10121099  RH  052%=      5-min Rain = 0
KGU1 120120Z 04004KT M01/M10 A3012 RMK A01 T10131099  RH  053%=      5-min Rain = 0
KGU1 120121Z 04004KT M01/M10 A3012 RMK A01 T10131099  RH  053%=      5-min Rain = 0
KGU1 120122Z 03004KT M01/M10 A3012 RMK A01 T10141099  RH  053%=      5-min Rain = 0
KGU1 120123Z 03004KT M01/M10 A3012 RMK A01 T10141099  RH  053%=      5-min Rain = 0
KGU1 120124Z 03004KT M01/M10 A3012 RMK A01 T10141099  RH  053%=      5-min Rain = 0
KGU1 120125Z 03005KT M01/M10 A3012 RMK A01 T10141099  RH  053%=      5-min Rain = 0
KGU1 120126Z 03005KT M01/M10 A3012 RMK A01 T10141099  RH  053%=      5-min Rain = 0
KGU1 120127Z 03004KT M01/M10 A3012 RMK A01 T10141099  RH  053%=      5-min Rain = 0
KGU1 120128Z 03004KT M01/M10 A3012 RMK A01 T10141099  RH  053%=      5-min Rain = 0
KGU1 120129Z 03003KT M02/M10 A3012 RMK A01 T10151100  RH  053%=      5-min Rain = 0
KGU1 120130Z 03004KT M02/M10 A3012 RMK A01 T10151099  RH  053%=      5-min Rain = 0
KGU1 120131Z 03003KT M02/M10 A3013 RMK A01 T10151099  RH  053%=      5-min Rain = 0
KGU1 120132Z 02004KT M02/M10 A3013 RMK A01 T10151099  RH  053%=      5-min Rain = 0
KGU1 120133Z 02003KT M02/M10 A3013 RMK A01 T10151100  RH  053%=      5-min Rain = 0
KGU1 120134Z 03003KT M02/M10 A3012 RMK A01 T10151100  RH  053%=      5-min Rain = 0
KGU1 120135Z 02003KT M02/M10 A3012 RMK A01 T10161100  RH  053%=      5-min Rain = 0
KGU1 120136Z 01004KT M02/M10 A3012 RMK A01 T10161100  RH  053%=      5-min Rain = 0
KGU1 120137Z 01004KT M02/M10 A3012 RMK A01 T10161099  RH  054%=      5-min Rain = 0
KGU1 120138Z 01005KT M02/M10 A3012 RMK A01 T10161099  RH  054%=      5-min Rain = 0
KGU1 120139Z 02005KT M02/M10 A3012 RMK A01 T10161099  RH  054%=      5-min Rain = 0
KGU1 120140Z 02004KT M02/M10 A3012 RMK A01 T10161099  RH  054%=      5-min Rain = 0
KGU1 120141Z 02004KT M02/M10 A3013 RMK A01 T10161099  RH  054%=      5-min Rain = 0
KGU1 120142Z 02004KT M02/M10 A3013 RMK A01 T10161098  RH  054%=      5-min Rain = 0
KGU1 120143Z 03004KT M02/M10 A3013 RMK A01 T10161099  RH  054%=      5-min Rain = 0
KGU1 120144Z 03003KT M02/M10 A3013 RMK A01 T10161099  RH  054%=      5-min Rain = 0
KGU1 120145Z 03002KT M02/M10 A3013 RMK A01 T10161099  RH  054%=      5-min Rain = 0
KGU1 120146Z 04003KT M02/M10 A3013 RMK A01 T10161099  RH  054%=      5-min Rain = 0
KGU1 120147Z 03003KT M02/M10 A3013 RMK A01 T10171099  RH  054%=      5-min Rain = 0
KGU1 120148Z 02003KT M02/M10 A3013 RMK A01 T10171099  RH  054%=      5-min Rain = 0
KGU1 120149Z 02004KT M02/M10 A3013 RMK A01 T10171099  RH  054%=      5-min Rain = 0
KGU1 120150Z 03004KT M02/M10 A3013 RMK A01 T10171099  RH  054%=      5-min Rain = 0
KGU1 120151Z 05004KT M02/M10 A3013 RMK A01 T10181100  RH  054%=      5-min Rain = 0
KGU1 120152Z 05003KT M02/M10 A3013 RMK A01 T10181100  RH  054%=      5-min Rain = 0
KGU1 120153Z 03003KT M02/M10 A3013 RMK A01 T10191100  RH  054%=      5-min Rain = 0
KGU1 120154Z 01003KT M02/M10 A3013 RMK A01 T10191099  RH  055%=      5-min Rain = 0
KGU1 120155Z 02003KT M02/M10 A3013 RMK A01 T10191099  RH  055%=      5-min Rain = 0
KGU1 120156Z 03003KT M02/M10 A3013 RMK A01 T10191099  RH  055%=      5-min Rain = 0
KGU1 120157Z 03003KT M02/M10 A3013 RMK A01 T10191099  RH  055%=      5-min Rain = 0
KGU1 120158Z 36003KT M02/M10 A3013 RMK A01 T10191099  RH  055%=      5-min Rain = 0
KGU1 120159Z 36005KT M02/M10 A3013 RMK A01 T10191099  RH  055%=      5-min Rain = 0
KGU1 120200Z 01005KT M02/M10 A3013 RMK A01 T10191099  RH  055%=      5-min Rain = 0
KGU1 120201Z 02005KT M02/M10 A3013 RMK A01 T10191099  RH  055%=      5-min Rain = 0
KGU1 120202Z 02004KT M02/M10 A3013 RMK A01 T10191099  RH  055%=      5-min Rain = 0
KGU1 120203Z 02003KT M02/M10 A3013 RMK A01 T10191099  RH  055%=      5-min Rain = 0
KGU1 120204Z 02004KT M02/M10 A3013 RMK A01 T10191099  RH  055%=      5-min Rain = 0
KGU1 120205Z 02005KT M02/M10 A3013 RMK A01 T10191099  RH  055%=      5-min Rain = 0
KGU1 120206Z 03005KT M02/M10 A3013 RMK A01 T10191098  RH  055%=      5-min Rain = 0
KGU1 120207Z 03004KT M02/M10 A3013 RMK A01 T10191098  RH  055%=      5-min Rain = 0
KGU1 120208Z 03004KT M02/M10 A3013 RMK A01 T10181099  RH  055%=      5-min Rain = 0
KGU1 120209Z 03004KT M02/M10 A3013 RMK A01 T10191099  RH  055%=      5-min Rain = 0
KGU1 120210Z 03004KT M02/M10 A3013 RMK A01 T10191099  RH  055%=      5-min Rain = 0
KGU1 120211Z 03003KT M02/M10 A3013 RMK A01 T10191099  RH  055%=      5-min Rain = 0
KGU1 120212Z 03004KT M02/M10 A3012 RMK A01 T10191099  RH  055%=      5-min Rain = 0
KGU1 120213Z 03004KT M02/M10 A3012 RMK A01 T10191099  RH  055%=      5-min Rain = 0
KGU1 120214Z 03004KT M02/M10 A3012 RMK A01 T10191099  RH  055%=      5-min Rain = 0
KGU1 120215Z 03004KT M02/M10 A3012 RMK A01 T10191099  RH  055%=      5-min Rain = 0
KGU1 120216Z 04004KT M02/M10 A3012 RMK A01 T10191099  RH  055%=      5-min Rain = 0
KGU1 120217Z 04005KT M02/M10 A3012 RMK A01 T10191099  RH  055%=      5-min Rain = 0
KGU1 120218Z 04004KT M02/M10 A3012 RMK A01 T10201099  RH  055%=      5-min Rain = 0
KGU1 120219Z 04003KT M02/M10 A3013 RMK A01 T10201099  RH  055%=      5-min Rain = 0
KGU1 120220Z 04003KT M02/M10 A3013 RMK A01 T10201099  RH  056%=      5-min Rain = 0
KGU1 120221Z 04003KT M02/M10 A3013 RMK A01 T10201099  RH  056%=      5-min Rain = 0
KGU1 120222Z 04003KT M02/M10 A3013 RMK A01 T10211099  RH  056%=      5-min Rain = 0
KGU1 120223Z 04004KT M02/M10 A3013 RMK A01 T10211099  RH  056%=      5-min Rain = 0
KGU1 120224Z 04003KT M02/M10 A3013 RMK A01 T10211099  RH  056%=      5-min Rain = 0
KGU1 120225Z 04004KT M02/M10 A3013 RMK A01 T10211099  RH  056%=      5-min Rain = 0
KGU1 120226Z 03004KT M02/M10 A3013 RMK A01 T10221099  RH  056%=      5-min Rain = 0
KGU1 120227Z 04004KT M02/M10 A3013 RMK A01 T10221099  RH  056%=      5-min Rain = 0
KGU1 120228Z 03004KT M02/M10 A3013 RMK A01 T10221099  RH  056%=      5-min Rain = 0
KGU1 120229Z 03005KT M02/M10 A3013 RMK A01 T10231099  RH  056%=      5-min Rain = 0
KGU1 120230Z 02005KT M02/M10 A3013 RMK A01 T10221099  RH  056%=      5-min Rain = 0
KGU1 120231Z 03005KT M02/M10 A3013 RMK A01 T10221099  RH  056%=      5-min Rain = 0
KGU1 120232Z 03005KT M02/M10 A3013 RMK A01 T10221099  RH  056%=      5-min Rain = 0
KGU1 120233Z 03005KT M02/M10 A3013 RMK A01 T10221099  RH  056%=      5-min Rain = 0
KGU1 120234Z 03004KT M02/M10 A3013 RMK A01 T10221099  RH  056%=      5-min Rain = 0
KGU1 120235Z 03004KT M02/M10 A3013 RMK A01 T10231099  RH  057%=      5-min Rain = 0
KGU1 120236Z 02004KT M02/M10 A3013 RMK A01 T10231099  RH  057%=      5-min Rain = 0
KGU1 120237Z 03005KT M02/M10 A3013 RMK A01 T10231099  RH  057%=      5-min Rain = 0
KGU1 120238Z 03004KT M02/M10 A3013 RMK A01 T10231099  RH  057%=      5-min Rain = 0
KGU1 120239Z 03004KT M02/M10 A3013 RMK A01 T10231099  RH  057%=      5-min Rain = 0
KGU1 120240Z 03004KT M02/M10 A3013 RMK A01 T10231099  RH  057%=      5-min Rain = 0
KGU1 120241Z 03004KT M02/M10 A3013 RMK A01 T10231099  RH  057%=      5-min Rain = 0
KGU1 120242Z 04004KT M02/M10 A3013 RMK A01 T10231099  RH  057%=      5-min Rain = 0
KGU1 120243Z 04003KT M02/M10 A3013 RMK A01 T10231099  RH  057%=      5-min Rain = 0
KGU1 120244Z 03003KT M02/M10 A3013 RMK A01 T10231099  RH  057%=      5-min Rain = 0
KGU1 120245Z 03003KT M02/M10 A3013 RMK A01 T10231099  RH  057%=      5-min Rain = 0
KGU1 120246Z 03003KT M02/M10 A3013 RMK A01 T10231099  RH  057%=      5-min Rain = 0
KGU1 120247Z 03003KT M02/M10 A3013 RMK A01 T10241099  RH  057%=      5-min Rain = 0
KGU1 120248Z 02003KT M02/M10 A3013 RMK A01 T10241100  RH  057%=      5-min Rain = 0
KGU1 120249Z 02003KT M02/M10 A3013 RMK A01 T10241099  RH  057%=      5-min Rain = 0
KGU1 120250Z 02004KT M02/M10 A3013 RMK A01 T10241099  RH  057%=      5-min Rain = 0
KGU1 120251Z 02004KT M02/M10 A3014 RMK A01 T10241099  RH  057%=      5-min Rain = 0
KGU1 120252Z 02004KT M02/M10 A3013 RMK A01 T10241099  RH  057%=      5-min Rain = 0
KGU1 120253Z 02005KT M02/M10 A3013 RMK A01 T10241099  RH  057%=      5-min Rain = 0
KGU1 120254Z 02005KT M02/M10 A3013 RMK A01 T10241099  RH  057%=      5-min Rain = 0
KGU1 120255Z 03004KT M03/M10 A3013 RMK A01 T10251099  RH  057%=      5-min Rain = 0
KGU1 120256Z 03004KT M03/M10 A3013 RMK A01 T10251099  RH  057%=      5-min Rain = 0
KGU1 120257Z 03004KT M03/M10 A3014 RMK A01 T10251099  RH  057%=      5-min Rain = 0
KGU1 120258Z 02003KT M03/M10 A3014 RMK A01 T10251099  RH  057%=      5-min Rain = 0
KGU1 120259Z 02003KT M03/M10 A3014 RMK A01 T10251099  RH  057%=      5-min Rain = 0
KGU1 120300Z 03004KT M03/M10 A3014 RMK A01 T10261100  RH  058%=      5-min Rain = 0
KGU1 120301Z 04004KT M03/M10 A3014 RMK A01 T10251099  RH  058%=      5-min Rain = 0
KGU1 120302Z 04005KT M03/M10 A3014 RMK A01 T10261099  RH  058%=      5-min Rain = 0
KGU1 120303Z 03005KT M03/M10 A3014 RMK A01 T10261099  RH  058%=      5-min Rain = 0
KGU1 120304Z 03004KT M03/M10 A3014 RMK A01 T10261099  RH  058%=      5-min Rain = 0
KGU1 120305Z 03004KT M03/M10 A3014 RMK A01 T10261099  RH  058%=      5-min Rain = 0
KGU1 120306Z 02004KT M03/M10 A3014 RMK A01 T10261099  RH  058%=      5-min Rain = 0
KGU1 120307Z 02003KT M03/M10 A3014 RMK A01 T10261099  RH  058%=      5-min Rain = 0
KGU1 120308Z 02004KT M03/M10 A3014 RMK A01 T10261099  RH  058%=      5-min Rain = 0
KGU1 120309Z 02004KT M03/M10 A3014 RMK A01 T10261099  RH  058%=      5-min Rain = 0
KGU1 120310Z 03004KT M03/M10 A3014 RMK A01 T10261099  RH  058%=      5-min Rain = 0
KGU1 120311Z 03004KT M03/M10 A3014 RMK A01 T10261100  RH  058%=      5-min Rain = 0
KGU1 120312Z 04003KT M03/M10 A3014 RMK A01 T10261100  RH  058%=      5-min Rain = 0
KGU1 120313Z 04003KT M03/M10 A3014 RMK A01 T10261099  RH  058%=      5-min Rain = 0
KGU1 120314Z 03004KT M03/M10 A3014 RMK A01 T10271099  RH  058%=      5-min Rain = 0
KGU1 120315Z 03004KT M03/M10 A3014 RMK A01 T10271099  RH  058%=      5-min Rain = 0
KGU1 120316Z 03004KT M03/M10 A3014 RMK A01 T10271099  RH  058%=      5-min Rain = 0
KGU1 120317Z 02005KT M03/M10 A3014 RMK A01 T10271099  RH  058%=      5-min Rain = 0
KGU1 120318Z 02005KT M03/M10 A3014 RMK A01 T10261099  RH  058%=      5-min Rain = 0
KGU1 120319Z 02005KT M03/M10 A3014 RMK A01 T10261099  RH  058%=      5-min Rain = 0
KGU1 120320Z 03005KT M03/M10 A3014 RMK A01 T10261099  RH  058%=      5-min Rain = 0
KGU1 120321Z 03004KT M03/M10 A3014 RMK A01 T10261099  RH  058%=      5-min Rain = 0
KGU1 120322Z 05004KT M03/M10 A3014 RMK A01 T10261099  RH  058%=      5-min Rain = 0
KGU1 120323Z 06004KT M03/M10 A3014 RMK A01 T10271099  RH  058%=      5-min Rain = 0
KGU1 120324Z 06005KT M03/M10 A3014 RMK A01 T10271099  RH  058%=      5-min Rain = 0
KGU1 120325Z 05004KT M03/M10 A3014 RMK A01 T10271099  RH  058%=      5-min Rain = 0
KGU1 120326Z 05004KT M03/M10 A3014 RMK A01 T10271099  RH  058%=      5-min Rain = 0
KGU1 120327Z 04003KT M03/M10 A3014 RMK A01 T10271099  RH  058%=      5-min Rain = 0
KGU1 120328Z 04003KT M03/M10 A3014 RMK A01 T10281100  RH  058%=      5-min Rain = 0
KGU1 120329Z 03003KT M03/M10 A3014 RMK A01 T10281099  RH  059%=      5-min Rain = 0
KGU1 120330Z 02003KT M03/M10 A3014 RMK A01 T10281099  RH  059%=      5-min Rain = 0
KGU1 120331Z 01004KT M03/M10 A3014 RMK A01 T10281100  RH  059%=      5-min Rain = 0
KGU1 120332Z 01004KT M03/M10 A3014 RMK A01 T10291100  RH  059%=      5-min Rain = 0
KGU1 120333Z 02005KT M03/M10 A3014 RMK A01 T10291100  RH  059%=      5-min Rain = 0
KGU1 120334Z 03005KT M03/M10 A3014 RMK A01 T10301100  RH  059%=      5-min Rain = 0
KGU1 120335Z 03005KT M03/M10 A3014 RMK A01 T10301100  RH  059%=      5-min Rain = 0
KGU1 120336Z 03005KT M03/M10 A3014 RMK A01 T10291100  RH  059%=      5-min Rain = 0
KGU1 120337Z 03005KT M03/M10 A3014 RMK A01 T10301100  RH  059%=      5-min Rain = 0
KGU1 120338Z 02005KT M03/M10 A3014 RMK A01 T10291100  RH  059%=      5-min Rain = 0
KGU1 120339Z 02005KT M03/M10 A3014 RMK A01 T10291100  RH  059%=      5-min Rain = 0
KGU1 120340Z 02005KT M03/M10 A3014 RMK A01 T10291100  RH  059%=      5-min Rain = 0
KGU1 120341Z 02005KT M03/M10 A3014 RMK A01 T10291100  RH  059%=      5-min Rain = 0
KGU1 120342Z 03006KT M03/M10 A3014 RMK A01 T10291100  RH  059%=      5-min Rain = 0
KGU1 120343Z 02005KT M03/M10 A3014 RMK A01 T10291100  RH  059%=      5-min Rain = 0
KGU1 120344Z 03005KT M03/M10 A3014 RMK A01 T10291099  RH  059%=      5-min Rain = 0
KGU1 120345Z 03005KT M03/M10 A3014 RMK A01 T10281099  RH  059%=      5-min Rain = 0
KGU1 120346Z 03005KT M03/M10 A3014 RMK A01 T10281099  RH  059%=      5-min Rain = 0
KGU1 120347Z 02005KT M03/M10 A3014 RMK A01 T10281100  RH  059%=      5-min Rain = 0
KGU1 120348Z 03005KT M03/M10 A3014 RMK A01 T10281100  RH  059%=      5-min Rain = 0
KGU1 120349Z 03005KT M03/M10 A3014 RMK A01 T10281100  RH  059%=      5-min Rain = 0
KGU1 120350Z 03005KT M03/M10 A3014 RMK A01 T10281100  RH  059%=      5-min Rain = 0
KGU1 120351Z 03004KT M03/M10 A3014 RMK A01 T10291100  RH  059%=      5-min Rain = 0
KGU1 120352Z 03004KT M03/M10 A3014 RMK A01 T10291100  RH  059%=      5-min Rain = 0
KGU1 120353Z 04005KT M03/M10 A3014 RMK A01 T10291100  RH  059%=      5-min Rain = 0
KGU1 120354Z 04005KT M03/M10 A3014 RMK A01 T10291100  RH  059%=      5-min Rain = 0
KGU1 120355Z 04004KT M03/M10 A3014 RMK A01 T10301100  RH  059%=      5-min Rain = 0
KGU1 120356Z 03004KT M03/M10 A3014 RMK A01 T10301100  RH  059%=      5-min Rain = 0
KGU1 120357Z 02005KT M03/M10 A3014 RMK A01 T10301100  RH  059%=      5-min Rain = 0
KGU1 120358Z 02005KT M03/M10 A3014 RMK A01 T10301100  RH  059%=      5-min Rain = 0
KGU1 120359Z 02005KT M03/M10 A3014 RMK A01 T10301100  RH  059%=      5-min Rain = 0
KGU1 120400Z 02005KT M03/M10 A3014 RMK A01 T10301100  RH  059%=      5-min Rain = 0
KGU1 120401Z 02005KT M03/M10 A3014 RMK A01 T10301100  RH  059%=      5-min Rain = 0
KGU1 120402Z 02005KT M03/M10 A3014 RMK A01 T10311100  RH  059%=      5-min Rain = 0
KGU1 120403Z 01005KT M03/M10 A3014 RMK A01 T10311100  RH  060%=      5-min Rain = 0
KGU1 120404Z 01005KT M03/M10 A3014 RMK A01 T10311100  RH  060%=      5-min Rain = 0
KGU1 120405Z 01006KT M03/M10 A3014 RMK A01 T10311100  RH  060%=      5-min Rain = 0
KGU1 120406Z 01005KT M03/M10 A3014 RMK A01 T10301100  RH  060%=      5-min Rain = 0
KGU1 120407Z 00006KT M03/M10 A3014 RMK A01 T10301100  RH  060%=      5-min Rain = 0
KGU1 120408Z 00006KT M03/M10 A3014 RMK A01 T10301100  RH  059%=      5-min Rain = 0
KGU1 120409Z 00005KT M03/M10 A3014 RMK A01 T10301100  RH  059%=      5-min Rain = 0
KGU1 120410Z 01005KT M03/M10 A3014 RMK A01 T10291099  RH  059%=      5-min Rain = 0
KGU1 120411Z 01005KT M03/M10 A3014 RMK A01 T10291100  RH  059%=      5-min Rain = 0
KGU1 120412Z 02005KT M03/M10 A3014 RMK A01 T10291100  RH  059%=      5-min Rain = 0
KGU1 120413Z 03005KT M03/M10 A3014 RMK A01 T10291100  RH  059%=      5-min Rain = 0
KGU1 120414Z 03005KT M03/M10 A3014 RMK A01 T10291100  RH  059%=      5-min Rain = 0
KGU1 120415Z 03004KT M03/M10 A3014 RMK A01 T10291100  RH  059%=      5-min Rain = 0
KGU1 120416Z 04004KT M03/M10 A3014 RMK A01 T10291100  RH  059%=      5-min Rain = 0
KGU1 120417Z 04004KT M03/M10 A3014 RMK A01 T10291100  RH  059%=      5-min Rain = 0
KGU1 120418Z 05003KT M03/M10 A3014 RMK A01 T10291100  RH  059%=      5-min Rain = 0
KGU1 120419Z 05003KT M03/M10 A3014 RMK A01 T10291100  RH  059%=      5-min Rain = 0
KGU1 120420Z 05003KT M03/M10 A3014 RMK A01 T10301100  RH  059%=      5-min Rain = 0
KGU1 120421Z 04003KT M03/M10 A3014 RMK A01 T10301100  RH  059%=      5-min Rain = 0
KGU1 120422Z 04003KT M03/M10 A3014 RMK A01 T10301100  RH  059%=      5-min Rain = 0
KGU1 120423Z 04004KT M03/M10 A3014 RMK A01 T10301100  RH  059%=      5-min Rain = 0
KGU1 120424Z 03004KT M03/M10 A3014 RMK A01 T10301100  RH  059%=      5-min Rain = 0
KGU1 120425Z 03004KT M03/M10 A3014 RMK A01 T10311100  RH  059%=      5-min Rain = 0
KGU1 120426Z 03004KT M03/M10 A3014 RMK A01 T10311100  RH  059%=      5-min Rain = 0
KGU1 120427Z 03004KT M03/M10 A3014 RMK A01 T10311100  RH  060%=      5-min Rain = 0
KGU1 120428Z 03004KT M03/M10 A3014 RMK A01 T10311100  RH  060%=      5-min Rain = 0
KGU1 120429Z 03004KT M03/M10 A3014 RMK A01 T10311100  RH  060%=      5-min Rain = 0
KGU1 120430Z 03005KT M03/M10 A3014 RMK A01 T10311101  RH  060%=      5-min Rain = 0
KGU1 120431Z 02005KT M03/M10 A3014 RMK A01 T10321100  RH  060%=      5-min Rain = 0
KGU1 120432Z 02005KT M03/M10 A3014 RMK A01 T10311100  RH  060%=      5-min Rain = 0
KGU1 120433Z 03004KT M03/M10 A3014 RMK A01 T10321101  RH  060%=      5-min Rain = 0
KGU1 120434Z 03004KT M03/M10 A3014 RMK A01 T10321100  RH  060%=      5-min Rain = 0
KGU1 120435Z 03004KT M03/M10 A3014 RMK A01 T10321100  RH  060%=      5-min Rain = 0
KGU1 120436Z 03004KT M03/M10 A3014 RMK A01 T10321101  RH  060%=      5-min Rain = 0
KGU1 120437Z 03003KT M03/M10 A3014 RMK A01 T10321100  RH  060%=      5-min Rain = 0
KGU1 120438Z 03003KT M03/M10 A3014 RMK A01 T10321100  RH  060%=      5-min Rain = 0
KGU1 120439Z 03003KT M03/M10 A3014 RMK A01 T10321100  RH  060%=      5-min Rain = 0
KGU1 120440Z 02003KT M03/M10 A3014 RMK A01 T10321100  RH  060%=      5-min Rain = 0
KGU1 120441Z 03003KT M03/M10 A3014 RMK A01 T10321100  RH  060%=      5-min Rain = 0
KGU1 120442Z 03003KT M03/M10 A3014 RMK A01 T10321100  RH  060%=      5-min Rain = 0
KGU1 120443Z 03003KT M03/M10 A3014 RMK A01 T10321100  RH  060%=      5-min Rain = 0
KGU1 120444Z 03003KT M03/M10 A3014 RMK A01 T10311100  RH  060%=      5-min Rain = 0
KGU1 120445Z 03003KT M03/M10 A3014 RMK A01 T10311100  RH  060%=      5-min Rain = 0
KGU1 120446Z 03003KT M03/M10 A3014 RMK A01 T10321101  RH  060%=      5-min Rain = 0
KGU1 120447Z 03003KT M03/M10 A3014 RMK A01 T10321101  RH  060%=      5-min Rain = 0
KGU1 120448Z 02003KT M03/M10 A3014 RMK A01 T10321101  RH  060%=      5-min Rain = 0
KGU1 120449Z 02003KT M03/M10 A3014 RMK A01 T10321101  RH  060%=      5-min Rain = 0
KGU1 120450Z 02004KT M03/M10 A3014 RMK A01 T10321101  RH  060%=      5-min Rain = 0
KGU1 120451Z 03004KT M03/M10 A3015 RMK A01 T10321101  RH  060%=      5-min Rain = 0
KGU1 120452Z 04003KT M03/M10 A3015 RMK A01 T10331101  RH  060%=      5-min Rain = 0
KGU1 120453Z 04003KT M03/M10 A3015 RMK A01 T10331101  RH  060%=      5-min Rain = 0
KGU1 120454Z 03004KT M03/M10 A3015 RMK A01 T10331101  RH  060%=      5-min Rain = 0
KGU1 120455Z 02004KT M03/M10 A3014 RMK A01 T10331101  RH  060%=      5-min Rain = 0
KGU1 120456Z 02005KT M03/M10 A3014 RMK A01 T10331101  RH  060%=      5-min Rain = 0
KGU1 120457Z 03005KT M03/M10 A3014 RMK A01 T10331101  RH  060%=      5-min Rain = 0
KGU1 120458Z 03005KT M03/M10 A3014 RMK A01 T10331101  RH  060%=      5-min Rain = 0
KGU1 120459Z 02005KT M03/M10 A3014 RMK A01 T10331101  RH  060%=      5-min Rain = 0
KGU1 120500Z 02005KT M03/M10 A3014 RMK A01 T10331101  RH  060%=      5-min Rain = 0
KGU1 120501Z 01005KT M03/M10 A3014 RMK A01 T10331101  RH  060%=      5-min Rain = 0
KGU1 120502Z 01004KT M03/M10 A3014 RMK A01 T10331101  RH  060%=      5-min Rain = 0
KGU1 120503Z 01004KT M03/M10 A3014 RMK A01 T10331101  RH  060%=      5-min Rain = 0
KGU1 120504Z 01005KT M03/M10 A3014 RMK A01 T10331100  RH  060%=      5-min Rain = 0
KGU1 120505Z 01004KT M03/M10 A3014 RMK A01 T10331101  RH  060%=      5-min Rain = 0
KGU1 120506Z 01005KT M03/M10 A3014 RMK A01 T10331100  RH  060%=      5-min Rain = 0
KGU1 120507Z 01005KT M03/M10 A3014 RMK A01 T10331100  RH  060%=      5-min Rain = 0
KGU1 120508Z 01004KT M03/M10 A3014 RMK A01 T10331100  RH  060%=      5-min Rain = 0
KGU1 120509Z 01004KT M03/M10 A3014 RMK A01 T10321100  RH  060%=      5-min Rain = 0
KGU1 120510Z 01004KT M03/M10 A3014 RMK A01 T10321100  RH  060%=      5-min Rain = 0
KGU1 120511Z 02005KT M03/M10 A3014 RMK A01 T10321100  RH  060%=      5-min Rain = 0
KGU1 120512Z 02004KT M03/M10 A3014 RMK A01 T10321100  RH  060%=      5-min Rain = 0
KGU1 120513Z 01004KT M03/M10 A3014 RMK A01 T10311100  RH  060%=      5-min Rain = 0
KGU1 120514Z 02004KT M03/M10 A3014 RMK A01 T10311100  RH  060%=      5-min Rain = 0
KGU1 120515Z 02004KT M03/M10 A3014 RMK A01 T10311100  RH  060%=      5-min Rain = 0
KGU1 120516Z 02004KT M03/M10 A3014 RMK A01 T10301099  RH  060%=      5-min Rain = 0
KGU1 120517Z 02003KT M03/M10 A3014 RMK A01 T10301099  RH  059%=      5-min Rain = 0
KGU1 120518Z 03002KT M03/M10 A3014 RMK A01 T10301099  RH  059%=      5-min Rain = 0
KGU1 120519Z 04002KT M03/M10 A3014 RMK A01 T10291099  RH  059%=      5-min Rain = 0
KGU1 120520Z 04003KT M03/M10 A3014 RMK A01 T10291099  RH  059%=      5-min Rain = 0
KGU1 120521Z 04003KT M03/M10 A3014 RMK A01 T10291099  RH  059%=      5-min Rain = 0
KGU1 120522Z 03002KT M03/M10 A3014 RMK A01 T10281099  RH  059%=      5-min Rain = 0
KGU1 120523Z 04002KT M03/M10 A3014 RMK A01 T10281099  RH  059%=      5-min Rain = 0
KGU1 120524Z 05002KT M03/M10 A3014 RMK A01 T10281099  RH  059%=      5-min Rain = 0
KGU1 120525Z 05003KT M03/M10 A3014 RMK A01 T10271099  RH  059%=      5-min Rain = 0
KGU1 120526Z 05003KT M03/M10 A3015 RMK A01 T10271099  RH  058%=      5-min Rain = 0
KGU1 120527Z 06003KT M03/M10 A3015 RMK A01 T10261099  RH  058%=      5-min Rain = 0
KGU1 120528Z 06003KT M03/M10 A3015 RMK A01 T10261099  RH  058%=      5-min Rain = 0
KGU1 120529Z 05003KT M03/M10 A3015 RMK A01 T10261098  RH  058%=      5-min Rain = 0
KGU1 120530Z 04003KT M03/M10 A3015 RMK A01 T10261098  RH  058%=      5-min Rain = 0
KGU1 120531Z 03003KT M03/M10 A3015 RMK A01 T10261098  RH  058%=      5-min Rain = 0
KGU1 120532Z 03004KT M03/M10 A3015 RMK A01 T10251098  RH  058%=      5-min Rain = 0
KGU1 120533Z 02003KT M03/M10 A3015 RMK A01 T10251097  RH  058%=      5-min Rain = 0
KGU1 120534Z 02003KT M02/M10 A3015 RMK A01 T10241097  RH  058%=      5-min Rain = 0
KGU1 120535Z 02003KT M02/M10 A3015 RMK A01 T10241097  RH  058%=      5-min Rain = 0
KGU1 120536Z 02003KT M02/M10 A3015 RMK A01 T10241097  RH  058%=      5-min Rain = 0
KGU1 120537Z 02003KT M02/M10 A3015 RMK A01 T10241098  RH  058%=      5-min Rain = 0
KGU1 120538Z 02003KT M02/M10 A3015 RMK A01 T10231098  RH  057%=      5-min Rain = 0
KGU1 120539Z 02003KT M02/M10 A3015 RMK A01 T10231097  RH  057%=      5-min Rain = 0
KGU1 120540Z 03003KT M02/M10 A3015 RMK A01 T10231098  RH  057%=      5-min Rain = 0
KGU1 120541Z 03003KT M02/M10 A3015 RMK A01 T10231098  RH  057%=      5-min Rain = 0
KGU1 120542Z 03003KT M02/M10 A3015 RMK A01 T10231098  RH  057%=      5-min Rain = 0
KGU1 120543Z 03003KT M02/M10 A3015 RMK A01 T10231098  RH  057%=      5-min Rain = 0
KGU1 120544Z 04003KT M02/M10 A3015 RMK A01 T10231097  RH  057%=      5-min Rain = 0
KGU1 120545Z 04003KT M02/M10 A3015 RMK A01 T10231097  RH  057%=      5-min Rain = 0
KGU1 120546Z 05003KT M02/M10 A3015 RMK A01 T10221097  RH  057%=      5-min Rain = 0
KGU1 120547Z 04002KT M02/M10 A3015 RMK A01 T10221097  RH  057%=      5-min Rain = 0
KGU1 120548Z 04002KT M02/M10 A3015 RMK A01 T10221097  RH  057%=      5-min Rain = 0
KGU1 120549Z 02002KT M02/M10 A3015 RMK A01 T10221097  RH  057%=      5-min Rain = 0
KGU1 120550Z 02002KT M02/M10 A3014 RMK A01 T10221097  RH  057%=      5-min Rain = 0
KGU1 120551Z 03002KT M02/M10 A3015 RMK A01 T10221097  RH  057%=      5-min Rain = 0
KGU1 120552Z 06003KT M02/M10 A3015 RMK A01 T10221097  RH  057%=      5-min Rain = 0
KGU1 120553Z 05003KT M02/M10 A3015 RMK A01 T10211098  RH  057%=      5-min Rain = 0
KGU1 120554Z 05003KT M02/M10 A3015 RMK A01 T10221098  RH  057%=      5-min Rain = 0
KGU1 120555Z 06004KT M02/M10 A3015 RMK A01 T10221098  RH  057%=      5-min Rain = 0
KGU1 120556Z 07003KT M02/M10 A3015 RMK A01 T10221098  RH  057%=      5-min Rain = 0
KGU1 120557Z 08004KT M02/M10 A3015 RMK A01 T10231098  RH  057%=      5-min Rain = 0
KGU1 120558Z 08003KT M02/M10 A3015 RMK A01 T10231098  RH  057%=      5-min Rain = 0
KGU1 120559Z 09003KT M02/M10 A3015 RMK A01 T10231098  RH  057%=      5-min Rain = 0

Page generated in 0.1266 seconds.